Observation data for Tarzan on 08/13/2017      Previous  Date  Next       Current Mesonet Observations  Soil Data  Daily Summary Page  Observations in Plain Language
KTA1 130501Z 18008KT 23/20 A3003 RMK A01 T02270202  RH  085%=      5-min Rain = 0
KTA1 130502Z 18008KT 23/20 A3003 RMK A01 T02270201  RH  086%=      5-min Rain = 0
KTA1 130503Z 18009KT 23/20 A3003 RMK A01 T02270201  RH  085%=      5-min Rain = 0
KTA1 130504Z 17008KT 23/20 A3003 RMK A01 T02260201  RH  086%=      5-min Rain = 0
KTA1 130505Z 17008KT 23/20 A3003 RMK A01 T02260202  RH  086%=      5-min Rain = 0
KTA1 130506Z 17008KT 23/20 A3003 RMK A01 T02260202  RH  086%=      5-min Rain = 0
KTA1 130507Z 17008KT 23/20 A3003 RMK A01 T02260202  RH  086%=      5-min Rain = 0
KTA1 130508Z 17008KT 23/20 A3003 RMK A01 T02260201  RH  086%=      5-min Rain = 0
KTA1 130509Z 17009KT 23/20 A3003 RMK A01 T02260201  RH  086%=      5-min Rain = 0
KTA1 130510Z 17008KT 23/20 A3003 RMK A01 T02260201  RH  086%=      5-min Rain = 0
KTA1 130511Z 17008KT 23/20 A3003 RMK A01 T02260201  RH  086%=      5-min Rain = 0
KTA1 130512Z 17007KT 23/20 A3003 RMK A01 T02260201  RH  086%=      5-min Rain = 0
KTA1 130513Z 17008KT 23/20 A3003 RMK A01 T02260201  RH  086%=      5-min Rain = 0
KTA1 130514Z 17008KT 23/20 A3003 RMK A01 T02250201  RH  086%=      5-min Rain = 0
KTA1 130515Z 17008KT 23/20 A3003 RMK A01 T02250200  RH  086%=      5-min Rain = 0
KTA1 130516Z 16008KT 23/20 A3003 RMK A01 T02250200  RH  086%=      5-min Rain = 0
KTA1 130517Z 16008KT 23/20 A3003 RMK A01 T02260201  RH  086%=      5-min Rain = 0
KTA1 130518Z 16008KT 23/20 A3003 RMK A01 T02250200  RH  086%=      5-min Rain = 0
KTA1 130519Z 16008KT 23/20 A3003 RMK A01 T02250200  RH  086%=      5-min Rain = 0
KTA1 130520Z 16008KT 23/20 A3003 RMK A01 T02250200  RH  086%=      5-min Rain = 0
KTA1 130521Z 17007KT 23/20 A3003 RMK A01 T02250200  RH  086%=      5-min Rain = 0
KTA1 130522Z 17008KT 23/20 A3003 RMK A01 T02250200  RH  086%=      5-min Rain = 0
KTA1 130523Z 17008KT 22/20 A3003 RMK A01 T02240200  RH  086%=      5-min Rain = 0
KTA1 130524Z 17006KT 22/20 A3003 RMK A01 T02240199  RH  086%=      5-min Rain = 0
KTA1 130525Z 17007KT 23/20 A3002 RMK A01 T02250199  RH  086%=      5-min Rain = 0
KTA1 130526Z 17006KT 23/20 A3002 RMK A01 T02250199  RH  085%=      5-min Rain = 0
KTA1 130527Z 17006KT 23/20 A3002 RMK A01 T02250200  RH  086%=      5-min Rain = 0
KTA1 130528Z 17007KT 23/20 A3002 RMK A01 T02250200  RH  086%=      5-min Rain = 0
KTA1 130529Z 17007KT 23/20 A3002 RMK A01 T02250199  RH  086%=      5-min Rain = 0
KTA1 130530Z 17007KT 23/20 A3002 RMK A01 T02250199  RH  086%=      5-min Rain = 0
KTA1 130531Z 18007KT 22/20 A3002 RMK A01 T02240199  RH  086%=      5-min Rain = 0
KTA1 130532Z 17007KT 22/20 A3002 RMK A01 T02240199  RH  086%=      5-min Rain = 0
KTA1 130533Z 17008KT 22/20 A3002 RMK A01 T02240199  RH  085%=      5-min Rain = 0
KTA1 130534Z 18007KT 22/20 A3002 RMK A01 T02240197  RH  085%=      5-min Rain = 0
KTA1 130535Z 17007KT 22/20 A3002 RMK A01 T02240198  RH  085%=      5-min Rain = 0
KTA1 130536Z 17006KT 22/20 A3002 RMK A01 T02240198  RH  085%=      5-min Rain = 0
KTA1 130537Z 17007KT 22/20 A3002 RMK A01 T02240198  RH  085%=      5-min Rain = 0
KTA1 130538Z 18006KT 22/20 A3002 RMK A01 T02240198  RH  085%=      5-min Rain = 0
KTA1 130539Z 17006KT 22/20 A3002 RMK A01 T02240198  RH  085%=      5-min Rain = 0
KTA1 130540Z 18006KT 22/20 A3002 RMK A01 T02240198  RH  085%=      5-min Rain = 0
KTA1 130541Z 18007KT 22/20 A3002 RMK A01 T02240197  RH  085%=      5-min Rain = 0
KTA1 130542Z 18007KT 22/20 A3002 RMK A01 T02240196  RH  084%=      5-min Rain = 0
KTA1 130543Z 18007KT 22/20 A3002 RMK A01 T02240196  RH  084%=      5-min Rain = 0
KTA1 130544Z 17006KT 23/20 A3002 RMK A01 T02250196  RH  084%=      5-min Rain = 0
KTA1 130545Z 17006KT 23/20 A3002 RMK A01 T02250196  RH  084%=      5-min Rain = 0
KTA1 130546Z 18006KT 23/20 A3002 RMK A01 T02250195  RH  083%=      5-min Rain = 0
KTA1 130547Z 18007KT 23/20 A3002 RMK A01 T02250196  RH  084%=      5-min Rain = 0
KTA1 130548Z 18006KT 23/20 A3002 RMK A01 T02250195  RH  083%=      5-min Rain = 0
KTA1 130549Z 18006KT 23/20 A3002 RMK A01 T02250196  RH  084%=      5-min Rain = 0
KTA1 130550Z 18006KT 23/20 A3002 RMK A01 T02250196  RH  084%=      5-min Rain = 0
KTA1 130551Z 18006KT 23/20 A3002 RMK A01 T02250196  RH  084%=      5-min Rain = 0
KTA1 130552Z 18005KT 23/20 A3002 RMK A01 T02250196  RH  084%=      5-min Rain = 0
KTA1 130553Z 18005KT 23/20 A3002 RMK A01 T02250196  RH  084%=      5-min Rain = 0
KTA1 130554Z 18004KT 22/20 A3002 RMK A01 T02240196  RH  084%=      5-min Rain = 0
KTA1 130555Z 18004KT 22/20 A3002 RMK A01 T02240197  RH  084%=      5-min Rain = 0
KTA1 130556Z 18004KT 22/20 A3002 RMK A01 T02240197  RH  084%=      5-min Rain = 0
KTA1 130557Z 18004KT 22/20 A3002 RMK A01 T02240197  RH  085%=      5-min Rain = 0
KTA1 130558Z 17003KT 22/20 A3002 RMK A01 T02240197  RH  084%=      5-min Rain = 0
KTA1 130559Z 18002KT 22/20 A3002 RMK A01 T02240196  RH  084%=      5-min Rain = 0
KTA1 130600Z 20003KT 22/20 A3002 RMK A01 T02240196  RH  084%=      5-min Rain = 0
KTA1 130601Z 19003KT 22/20 A3002 RMK A01 T02240197  RH  084%=      5-min Rain = 0
KTA1 130602Z 19003KT 22/20 A3002 RMK A01 T02240197  RH  085%=      5-min Rain = 0
KTA1 130603Z 18003KT 22/20 A3002 RMK A01 T02240197  RH  085%=      5-min Rain = 0
KTA1 130604Z 19003KT 22/20 A3002 RMK A01 T02240197  RH  085%=      5-min Rain = 0
KTA1 130605Z 19003KT 22/20 A3002 RMK A01 T02230196  RH  085%=      5-min Rain = 0
KTA1 130606Z 19003KT 22/20 A3002 RMK A01 T02240197  RH  085%=      5-min Rain = 0
KTA1 130607Z 19003KT 22/20 A3002 RMK A01 T02240197  RH  085%=      5-min Rain = 0
KTA1 130608Z 19004KT 22/20 A3002 RMK A01 T02230196  RH  085%=      5-min Rain = 0
KTA1 130609Z 19003KT 22/20 A3002 RMK A01 T02230196  RH  085%=      5-min Rain = 0
KTA1 130610Z 20003KT 22/20 A3002 RMK A01 T02230196  RH  085%=      5-min Rain = 0
KTA1 130611Z 20004KT 22/20 A3002 RMK A01 T02230197  RH  085%=      5-min Rain = 0
KTA1 130612Z 20003KT 22/20 A3002 RMK A01 T02230196  RH  085%=      5-min Rain = 0
KTA1 130613Z 19003KT 22/20 A3002 RMK A01 T02230197  RH  085%=      5-min Rain = 0
KTA1 130614Z 19003KT 22/20 A3002 RMK A01 T02230197  RH  085%=      5-min Rain = 0
KTA1 130615Z 19003KT 22/20 A3002 RMK A01 T02230198  RH  085%=      5-min Rain = 0
KTA1 130616Z 19004KT 22/20 A3002 RMK A01 T02230198  RH  086%=      5-min Rain = 0
KTA1 130617Z 19003KT 22/20 A3002 RMK A01 T02230198  RH  086%=      5-min Rain = 0
KTA1 130618Z 19003KT 22/20 A3001 RMK A01 T02230198  RH  086%=      5-min Rain = 0
KTA1 130619Z 19003KT 22/20 A3001 RMK A01 T02230199  RH  087%=      5-min Rain = 0
KTA1 130620Z 19003KT 22/20 A3001 RMK A01 T02230199  RH  087%=      5-min Rain = 0
KTA1 130621Z 20004KT 22/20 A3001 RMK A01 T02220199  RH  086%=      5-min Rain = 0
KTA1 130622Z 20003KT 22/20 A3001 RMK A01 T02220198  RH  086%=      5-min Rain = 0
KTA1 130623Z 20004KT 22/20 A3001 RMK A01 T02220197  RH  086%=      5-min Rain = 0
KTA1 130624Z 19003KT 22/20 A3001 RMK A01 T02220197  RH  085%=      5-min Rain = 0
KTA1 130625Z 19003KT 22/20 A3001 RMK A01 T02230195  RH  084%=      5-min Rain = 0
KTA1 130626Z 19002KT 22/20 A3001 RMK A01 T02230196  RH  085%=      5-min Rain = 0
KTA1 130627Z 19003KT 22/20 A3001 RMK A01 T02240195  RH  084%=      5-min Rain = 0
KTA1 130628Z 19004KT 22/19 A3001 RMK A01 T02230194  RH  083%=      5-min Rain = 0
KTA1 130629Z 18003KT 22/19 A3001 RMK A01 T02240194  RH  083%=      5-min Rain = 0
KTA1 130630Z 18003KT 22/20 A3001 RMK A01 T02240195  RH  084%=      5-min Rain = 0
KTA1 130631Z 17003KT 22/20 A3001 RMK A01 T02240196  RH  084%=      5-min Rain = 0
KTA1 130632Z 17003KT 22/20 A3001 RMK A01 T02240195  RH  084%=      5-min Rain = 0
KTA1 130633Z 16002KT 22/20 A3001 RMK A01 T02240195  RH  084%=      5-min Rain = 0
KTA1 130634Z 16003KT 22/20 A3001 RMK A01 T02240195  RH  084%=      5-min Rain = 0
KTA1 130635Z 15003KT 22/20 A3001 RMK A01 T02240195  RH  084%=      5-min Rain = 0
KTA1 130636Z 13003KT 22/20 A3001 RMK A01 T02240195  RH  084%=      5-min Rain = 0
KTA1 130637Z 11003KT 22/20 A3001 RMK A01 T02240196  RH  084%=      5-min Rain = 0
KTA1 130638Z 10003KT 22/20 A3001 RMK A01 T02240197  RH  085%=      5-min Rain = 0
KTA1 130639Z 07003KT 22/20 A3001 RMK A01 T02230197  RH  085%=      5-min Rain = 0
KTA1 130640Z 06005KT 22/20 A3001 RMK A01 T02230199  RH  086%=      5-min Rain = 0
KTA1 130641Z 05006KT 22/20 A3001 RMK A01 T02220201  RH  088%=      5-min Rain = 0
KTA1 130642Z 05007KT 22/20 A3001 RMK A01 T02210201  RH  089%=      5-min Rain = 0
KTA1 130643Z 05008KT 22/20 A3001 RMK A01 T02200202  RH  089%=      5-min Rain = 0
KTA1 130644Z 05007KT 22/20 A3001 RMK A01 T02200202  RH  090%=      5-min Rain = 0
KTA1 130645Z 06007KT 22/20 A3001 RMK A01 T02190202  RH  090%=      5-min Rain = 0
KTA1 130646Z 06007KT 22/20 A3001 RMK A01 T02190202  RH  090%=      5-min Rain = 0
KTA1 130647Z 07006KT 22/20 A3001 RMK A01 T02190202  RH  090%=      5-min Rain = 0
KTA1 130648Z 07006KT 22/20 A3001 RMK A01 T02190202  RH  090%=      5-min Rain = 0
KTA1 130649Z 08004KT 22/20 A3001 RMK A01 T02190202  RH  090%=      5-min Rain = 0
KTA1 130650Z 09004KT 22/20 A3001 RMK A01 T02190202  RH  090%=      5-min Rain = 0
KTA1 130651Z 09003KT 22/20 A3001 RMK A01 T02190202  RH  090%=      5-min Rain = 0
KTA1 130652Z 10002KT 22/20 A3001 RMK A01 T02190202  RH  090%=      5-min Rain = 0
KTA1 130653Z 10002KT 22/20 A3001 RMK A01 T02190202  RH  090%=      5-min Rain = 0
KTA1 130654Z 10002KT 22/20 A3001 RMK A01 T02190202  RH  090%=      5-min Rain = 0
KTA1 130655Z 10002KT 22/20 A3001 RMK A01 T02190201  RH  090%=      5-min Rain = 0
KTA1 130656Z 08002KT 22/20 A3001 RMK A01 T02190201  RH  090%=      5-min Rain = 0
KTA1 130657Z 07003KT 22/20 A3001 RMK A01 T02180201  RH  090%=      5-min Rain = 0
KTA1 130658Z 06004KT 22/20 A3001 RMK A01 T02190202  RH  090%=      5-min Rain = 0
KTA1 130659Z 06005KT 22/20 A3001 RMK A01 T02180203  RH  091%=      5-min Rain = 0
KTA1 130700Z 06005KT 22/20 A3001 RMK A01 T02190203  RH  091%=      5-min Rain = 0
KTA1 130701Z 06005KT 22/20 A3001 RMK A01 T02180204  RH  092%=      5-min Rain = 0
KTA1 130702Z 06005KT 22/20 A3001 RMK A01 T02180204  RH  092%=      5-min Rain = 0
KTA1 130703Z 06005KT 22/20 A3001 RMK A01 T02180204  RH  092%=      5-min Rain = 0
KTA1 130704Z 06005KT 22/20 A3001 RMK A01 T02180204  RH  092%=      5-min Rain = 0
KTA1 130705Z 07004KT 22/20 A3001 RMK A01 T02180204  RH  092%=      5-min Rain = 0
KTA1 130706Z 07004KT 22/20 A3001 RMK A01 T02180203  RH  092%=      5-min Rain = 0
KTA1 130707Z 07004KT 22/20 A3001 RMK A01 T02180203  RH  091%=      5-min Rain = 0
KTA1 130708Z 08004KT 22/20 A3001 RMK A01 T02180203  RH  091%=      5-min Rain = 0
KTA1 130709Z 09003KT 22/20 A3001 RMK A01 T02180203  RH  091%=      5-min Rain = 0
KTA1 130710Z 10003KT 22/20 A3001 RMK A01 T02180203  RH  091%=      5-min Rain = 0
KTA1 130711Z 10003KT 22/20 A30 RMK A01 T02180203  RH  091%=      5-min Rain = 0
KTA1 130712Z 10003KT 22/20 A30 RMK A01 T02180203  RH  091%=      5-min Rain = 0
KTA1 130713Z 10003KT 22/20 A30 RMK A01 T02180203  RH  091%=      5-min Rain = 0
KTA1 130714Z 10004KT 22/20 A30 RMK A01 T02180203  RH  091%=      5-min Rain = 0
KTA1 130715Z 10004KT 22/20 A30 RMK A01 T02180203  RH  092%=      5-min Rain = 0
KTA1 130716Z 09005KT 22/20 A30 RMK A01 T02170203  RH  092%=      5-min Rain = 0
KTA1 130717Z 09005KT 22/20 A30 RMK A01 T02170203  RH  092%=      5-min Rain = 0
KTA1 130718Z 09005KT 22/20 A30 RMK A01 T02170202  RH  091%=      5-min Rain = 0
KTA1 130719Z 09006KT 22/20 A30 RMK A01 T02170203  RH  092%=      5-min Rain = 0
KTA1 130720Z 09006KT 22/20 A30 RMK A01 T02170203  RH  092%=      5-min Rain = 0
KTA1 130721Z 09006KT 22/20 A30 RMK A01 T02170202  RH  091%=      5-min Rain = 0
KTA1 130722Z 09006KT 22/20 A30 RMK A01 T02170202  RH  091%=      5-min Rain = 0
KTA1 130723Z 09005KT 22/20 A3001 RMK A01 T02170202  RH  091%=      5-min Rain = 0
KTA1 130724Z 08005KT 22/20 A3001 RMK A01 T02170202  RH  091%=      5-min Rain = 0
KTA1 130725Z 08006KT 22/20 A3001 RMK A01 T02170202  RH  091%=      5-min Rain = 0
KTA1 130726Z 08006KT 22/20 A3001 RMK A01 T02170202  RH  091%=      5-min Rain = 0
KTA1 130727Z 08007KT 22/20 A3001 RMK A01 T02170203  RH  092%=      5-min Rain = 0
KTA1 130728Z 08007KT 22/20 A3001 RMK A01 T02160202  RH  092%=      5-min Rain = 0
KTA1 130729Z 08006KT 22/20 A3001 RMK A01 T02170203  RH  092%=      5-min Rain = 0
KTA1 130730Z 08006KT 22/20 A3001 RMK A01 T02170203  RH  092%=      5-min Rain = 0
KTA1 130731Z 08006KT 22/20 A3001 RMK A01 T02170203  RH  092%=      5-min Rain = 0
KTA1 130732Z 08007KT 22/20 A3001 RMK A01 T02160203  RH  092%=      5-min Rain = 0
KTA1 130733Z 08006KT 22/20 A3001 RMK A01 T02160203  RH  092%=      5-min Rain = 0
KTA1 130734Z 08006KT 22/20 A3001 RMK A01 T02160203  RH  092%=      5-min Rain = 0
KTA1 130735Z 08006KT 22/20 A3001 RMK A01 T02160203  RH  092%=      5-min Rain = 0
KTA1 130736Z 08005KT 22/20 A30 RMK A01 T02160203  RH  092%=      5-min Rain = 0
KTA1 130737Z 08005KT 22/20 A30 RMK A01 T02160203  RH  092%=      5-min Rain = 0
KTA1 130738Z 08006KT 22/20 A30 RMK A01 T02160203  RH  092%=      5-min Rain = 0
KTA1 130739Z 08005KT 22/20 A30 RMK A01 T02160204  RH  092%=      5-min Rain = 0
KTA1 130740Z 09006KT 22/20 A30 RMK A01 T02160203  RH  092%=      5-min Rain = 0
KTA1 130741Z 08006KT 22/20 A30 RMK A01 T02160202  RH  092%=      5-min Rain = 0
KTA1 130742Z 09006KT 22/20 A30 RMK A01 T02160202  RH  092%=      5-min Rain = 0
KTA1 130743Z 09005KT 22/20 A30 RMK A01 T02160202  RH  092%=      5-min Rain = 0
KTA1 130744Z 09006KT 22/20 A3001 RMK A01 T02160202  RH  092%=      5-min Rain = 0
KTA1 130745Z 08006KT 22/20 A3001 RMK A01 T02160201  RH  092%=      5-min Rain = 0
KTA1 130746Z 08006KT 22/20 A30 RMK A01 T02160202  RH  091%=      5-min Rain = 0
KTA1 130747Z 08005KT 22/20 A30 RMK A01 T02160201  RH  091%=      5-min Rain = 0
KTA1 130748Z 08005KT 22/20 A30 RMK A01 T02160201  RH  091%=      5-min Rain = 0
KTA1 130749Z 08005KT 22/20 A30 RMK A01 T02160202  RH  091%=      5-min Rain = 0
KTA1 130750Z 08005KT 22/20 A30 RMK A01 T02160202  RH  092%=      5-min Rain = 0
KTA1 130751Z 08005KT 22/20 A30 RMK A01 T02160202  RH  091%=      5-min Rain = 0
KTA1 130752Z 08005KT 22/20 A30 RMK A01 T02160202  RH  091%=      5-min Rain = 0
KTA1 130753Z 08005KT 22/20 A30 RMK A01 T02160202  RH  091%=      5-min Rain = 0
KTA1 130754Z 08005KT 22/20 A30 RMK A01 T02160201  RH  091%=      5-min Rain = 0
KTA1 130755Z 08005KT 22/20 A30 RMK A01 T02160201  RH  091%=      5-min Rain = 0
KTA1 130756Z 09005KT 22/20 A30 RMK A01 T02160201  RH  091%=      5-min Rain = 0
KTA1 130757Z 09005KT 22/20 A30 RMK A01 T02160201  RH  091%=      5-min Rain = 0
KTA1 130758Z 09006KT 22/20 A30 RMK A01 T02170201  RH  091%=      5-min Rain = 0
KTA1 130759Z 09006KT 22/20 A30 RMK A01 T02170200  RH  090%=      5-min Rain = 0
KTA1 130800Z 09005KT 22/20 A30 RMK A01 T02170200  RH  090%=      5-min Rain = 0
KTA1 130801Z 09005KT 22/20 A30 RMK A01 T02170200  RH  090%=      5-min Rain = 0
KTA1 130802Z 09006KT 22/20 A30 RMK A01 T02170200  RH  090%=      5-min Rain = 0
KTA1 130803Z 09005KT 22/20 A30 RMK A01 T02170200  RH  090%=      5-min Rain = 0
KTA1 130804Z 09005KT 22/20 A30 RMK A01 T02170200  RH  090%=      5-min Rain = 0
KTA1 130805Z 09006KT 22/20 A30 RMK A01 T02170200  RH  090%=      5-min Rain = 0
KTA1 130806Z 09005KT 22/20 A30 RMK A01 T02170199  RH  090%=      5-min Rain = 0
KTA1 130807Z 09005KT 22/20 A30 RMK A01 T02170199  RH  090%=      5-min Rain = 0
KTA1 130808Z 09005KT 22/20 A30 RMK A01 T02170199  RH  089%=      5-min Rain = 0
KTA1 130809Z 09005KT 22/20 A30 RMK A01 T02170200  RH  090%=      5-min Rain = 0
KTA1 130810Z 09005KT 22/20 A30 RMK A01 T02170200  RH  090%=      5-min Rain = 0
KTA1 130811Z 08005KT 22/20 A30 RMK A01 T02170200  RH  090%=      5-min Rain = 0
KTA1 130812Z 09005KT 22/20 A30 RMK A01 T02170200  RH  090%=      5-min Rain = 0
KTA1 130813Z 09004KT 22/20 A30 RMK A01 T02170200  RH  090%=      5-min Rain = 0
KTA1 130814Z 09005KT 22/20 A30 RMK A01 T02170200  RH  090%=      5-min Rain = 0
KTA1 130815Z 09005KT 22/20 A30 RMK A01 T02170200  RH  090%=      5-min Rain = 0
KTA1 130816Z 09005KT 22/20 A30 RMK A01 T02170199  RH  090%=      5-min Rain = 0
KTA1 130817Z 09005KT 22/20 A30 RMK A01 T02170200  RH  090%=      5-min Rain = 0
KTA1 130818Z 09005KT 22/20 A30 RMK A01 T02170200  RH  090%=      5-min Rain = 0
KTA1 130819Z 09006KT 22/20 A30 RMK A01 T02170199  RH  090%=      5-min Rain = 0
KTA1 130820Z 09006KT 22/20 A30 RMK A01 T02170199  RH  090%=      5-min Rain = 0
KTA1 130821Z 09005KT 22/20 A30 RMK A01 T02170199  RH  090%=      5-min Rain = 0
KTA1 130822Z 09005KT 22/20 A30 RMK A01 T02170200  RH  090%=      5-min Rain = 0
KTA1 130823Z 09005KT 22/20 A30 RMK A01 T02170200  RH  090%=      5-min Rain = 0
KTA1 130824Z 09006KT 22/20 A30 RMK A01 T02170199  RH  090%=      5-min Rain = 0
KTA1 130825Z 09005KT 22/20 A30 RMK A01 T02170198  RH  089%=      5-min Rain = 0
KTA1 130826Z 09005KT 22/20 A30 RMK A01 T02170199  RH  089%=      5-min Rain = 0
KTA1 130827Z 09005KT 22/20 A30 RMK A01 T02160198  RH  089%=      5-min Rain = 0
KTA1 130828Z 10005KT 22/20 A30 RMK A01 T02170199  RH  089%=      5-min Rain = 0
KTA1 130829Z 10005KT 22/20 A30 RMK A01 T02170199  RH  090%=      5-min Rain = 0
KTA1 130830Z 10005KT 22/20 A30 RMK A01 T02170199  RH  090%=      5-min Rain = 0
KTA1 130831Z 10005KT 22/20 A30 RMK A01 T02160199  RH  090%=      5-min Rain = 0
KTA1 130832Z 10005KT 22/20 A30 RMK A01 T02160199  RH  090%=      5-min Rain = 0
KTA1 130833Z 10004KT 22/20 A30 RMK A01 T02160199  RH  090%=      5-min Rain = 0
KTA1 130834Z 10005KT 22/20 A30 RMK A01 T02160199  RH  090%=      5-min Rain = 0
KTA1 130835Z 09005KT 22/20 A30 RMK A01 T02160199  RH  090%=      5-min Rain = 0
KTA1 130836Z 09005KT 22/20 A30 RMK A01 T02160199  RH  090%=      5-min Rain = 0
KTA1 130837Z 09005KT 22/20 A30 RMK A01 T02160199  RH  090%=      5-min Rain = 0
KTA1 130838Z 09005KT 22/20 A30 RMK A01 T02160198  RH  090%=      5-min Rain = 0
KTA1 130839Z 08006KT 22/20 A30 RMK A01 T02150197  RH  089%=      5-min Rain = 0
KTA1 130840Z 08005KT 22/20 A30 RMK A01 T02160197  RH  089%=      5-min Rain = 0
KTA1 130841Z 09005KT 22/20 A30 RMK A01 T02160198  RH  089%=      5-min Rain = 0
KTA1 130842Z 09007KT 22/20 A30 RMK A01 T02160197  RH  089%=      5-min Rain = 0
KTA1 130843Z 10006KT 22/20 A30 RMK A01 T02160197  RH  089%=      5-min Rain = 0
KTA1 130844Z 10007KT 22/20 A30 RMK A01 T02160197  RH  089%=      5-min Rain = 0
KTA1 130845Z 10007KT 22/20 A30 RMK A01 T02160198  RH  089%=      5-min Rain = 0
KTA1 130846Z 10007KT 22/20 A30 RMK A01 T02160198  RH  089%=      5-min Rain = 0
KTA1 130847Z 11007KT 22/20 A30 RMK A01 T02160197  RH  089%=      5-min Rain = 0
KTA1 130848Z 11007KT 22/20 A3001 RMK A01 T02160198  RH  090%=      5-min Rain = 0
KTA1 130849Z 11008KT 22/20 A3001 RMK A01 T02160198  RH  090%=      5-min Rain = 0
KTA1 130850Z 11007KT 22/20 A3001 RMK A01 T02150198  RH  090%=      5-min Rain = 0
KTA1 130851Z 12007KT 22/20 A30 RMK A01 T02150198  RH  090%=      5-min Rain = 0
KTA1 130852Z 11008KT 22/20 A30 RMK A01 T02150198  RH  090%=      5-min Rain = 0
KTA1 130853Z 12007KT 22/20 A30 RMK A01 T02150198  RH  090%=      5-min Rain = 0
KTA1 130854Z 11007KT 22/20 A30 RMK A01 T02150198  RH  090%=      5-min Rain = 0
KTA1 130855Z 11008KT 22/20 A30 RMK A01 T02150197  RH  090%=      5-min Rain = 0
KTA1 130856Z 11007KT 22/20 A30 RMK A01 T02150197  RH  089%=      5-min Rain = 0
KTA1 130857Z 11008KT 22/20 A30 RMK A01 T02150197  RH  089%=      5-min Rain = 0
KTA1 130858Z 11008KT 22/20 A30 RMK A01 T02150196  RH  089%=      5-min Rain = 0
KTA1 130859Z 11006KT 22/20 A30 RMK A01 T02160196  RH  089%=      5-min Rain = 0
KTA1 130900Z 11006KT 22/20 A30 RMK A01 T02160197  RH  089%=      5-min Rain = 0
KTA1 130901Z 11006KT 22/20 A30 RMK A01 T02160197  RH  089%=      5-min Rain = 0
KTA1 130902Z 11005KT 22/20 A30 RMK A01 T02160197  RH  089%=      5-min Rain = 0
KTA1 130903Z 11005KT 22/20 A30 RMK A01 T02160197  RH  089%=      5-min Rain = 0
KTA1 130904Z 10006KT 22/20 A30 RMK A01 T02150197  RH  089%=      5-min Rain = 0
KTA1 130905Z 10005KT 22/20 A30 RMK A01 T02150197  RH  089%=      5-min Rain = 0
KTA1 130906Z 10005KT 22/20 A30 RMK A01 T02150197  RH  089%=      5-min Rain = 0
KTA1 130907Z 10006KT 22/20 A30 RMK A01 T02150197  RH  090%=      5-min Rain = 0
KTA1 130908Z 10005KT 22/20 A30 RMK A01 T02150197  RH  089%=      5-min Rain = 0
KTA1 130909Z 10004KT 22/20 A30 RMK A01 T02150197  RH  089%=      5-min Rain = 0
KTA1 130910Z 10005KT 22/20 A30 RMK A01 T02150197  RH  089%=      5-min Rain = 0
KTA1 130911Z 09005KT 22/20 A30 RMK A01 T02150197  RH  089%=      5-min Rain = 0
KTA1 130912Z 09005KT 22/20 A30 RMK A01 T02150197  RH  089%=      5-min Rain = 0
KTA1 130913Z 09005KT 22/20 A30 RMK A01 T02150196  RH  089%=      5-min Rain = 0
KTA1 130914Z 09004KT 22/20 A30 RMK A01 T02150196  RH  089%=      5-min Rain = 0
KTA1 130915Z 09005KT 22/20 A30 RMK A01 T02150197  RH  089%=      5-min Rain = 0
KTA1 130916Z 08005KT 22/20 A30 RMK A01 T02150197  RH  089%=      5-min Rain = 0
KTA1 130917Z 08004KT 22/20 A30 RMK A01 T02150197  RH  089%=      5-min Rain = 0
KTA1 130918Z 09004KT 22/20 A2999 RMK A01 T02150197  RH  090%=      5-min Rain = 0
KTA1 130919Z 08004KT 22/20 A2999 RMK A01 T02150197  RH  090%=      5-min Rain = 0
KTA1 130920Z 08004KT 22/20 A2999 RMK A01 T02150197  RH  089%=      5-min Rain = 0
KTA1 130921Z 08004KT 22/20 A2999 RMK A01 T02150197  RH  090%=      5-min Rain = 0
KTA1 130922Z 08004KT 22/20 A2999 RMK A01 T02150197  RH  090%=      5-min Rain = 0
KTA1 130923Z 08004KT 22/20 A2999 RMK A01 T02150197  RH  090%=      5-min Rain = 0
KTA1 130924Z 08005KT 22/20 A2999 RMK A01 T02150197  RH  090%=      5-min Rain = 0
KTA1 130925Z 07004KT 22/20 A2999 RMK A01 T02150197  RH  090%=      5-min Rain = 0
KTA1 130926Z 07004KT 22/20 A2999 RMK A01 T02150197  RH  090%=      5-min Rain = 0
KTA1 130927Z 08004KT 22/20 A2999 RMK A01 T02150198  RH  090%=      5-min Rain = 0
KTA1 130928Z 08003KT 22/20 A2999 RMK A01 T02150198  RH  090%=      5-min Rain = 0
KTA1 130929Z 07003KT 22/20 A2999 RMK A01 T02150199  RH  090%=      5-min Rain = 0
KTA1 130930Z 07004KT 22/20 A2999 RMK A01 T02150198  RH  090%=      5-min Rain = 0
KTA1 130931Z 06004KT 22/20 A2999 RMK A01 T02150199  RH  091%=      5-min Rain = 0
KTA1 130932Z 06003KT 22/20 A2999 RMK A01 T02150199  RH  091%=      5-min Rain = 0
KTA1 130933Z 07004KT 22/20 A2999 RMK A01 T02150199  RH  091%=      5-min Rain = 0
KTA1 130934Z 07004KT 22/20 A2999 RMK A01 T02150199  RH  091%=      5-min Rain = 0
KTA1 130935Z 07004KT 22/20 A2999 RMK A01 T02150199  RH  091%=      5-min Rain = 0
KTA1 130936Z 08004KT 22/20 A30 RMK A01 T02150199  RH  091%=      5-min Rain = 0
KTA1 130937Z 08005KT 22/20 A30 RMK A01 T02150200  RH  091%=      5-min Rain = 0
KTA1 130938Z 08004KT 22/20 A30 RMK A01 T02150200  RH  091%=      5-min Rain = 0
KTA1 130939Z 07004KT 22/20 A2999 RMK A01 T02150200  RH  091%=      5-min Rain = 0
KTA1 130940Z 07004KT 22/20 A2999 RMK A01 T02150199  RH  091%=      5-min Rain = 0
KTA1 130941Z 07004KT 22/20 A2999 RMK A01 T02150199  RH  091%=      5-min Rain = 0
KTA1 130942Z 08004KT 22/20 A30 RMK A01 T02150200  RH  091%=      5-min Rain = 0
KTA1 130943Z 08004KT 22/20 A30 RMK A01 T02150200  RH  091%=      5-min Rain = 0
KTA1 130944Z 08004KT 22/20 A30 RMK A01 T02160200  RH  091%=      5-min Rain = 0
KTA1 130945Z 07003KT 22/20 A30 RMK A01 T02150200  RH  091%=      5-min Rain = 0
KTA1 130946Z 07004KT 22/20 A30 RMK A01 T02150200  RH  091%=      5-min Rain = 0
KTA1 130947Z 08004KT 22/20 A30 RMK A01 T02160199  RH  090%=      5-min Rain = 0
KTA1 130948Z 08004KT 22/20 A30 RMK A01 T02160200  RH  090%=      5-min Rain = 0
KTA1 130949Z 08003KT 22/20 A30 RMK A01 T02160200  RH  090%=      5-min Rain = 0
KTA1 130950Z 07004KT 22/20 A2999 RMK A01 T02160200  RH  090%=      5-min Rain = 0
KTA1 130951Z 07004KT 22/20 A2999 RMK A01 T02170201  RH  090%=      5-min Rain = 0
KTA1 130952Z 07004KT 22/20 A30 RMK A01 T02170201  RH  091%=      5-min Rain = 0
KTA1 130953Z 08004KT 22/20 A30 RMK A01 T02170201  RH  091%=      5-min Rain = 0
KTA1 130954Z 08004KT 22/20 A30 RMK A01 T02170201  RH  091%=      5-min Rain = 0
KTA1 130955Z 07004KT 22/20 A30 RMK A01 T02170200  RH  090%=      5-min Rain = 0
KTA1 130956Z 07003KT 22/20 A30 RMK A01 T02170200  RH  090%=      5-min Rain = 0
KTA1 130957Z 08004KT 22/20 A30 RMK A01 T02170200  RH  090%=      5-min Rain = 0
KTA1 130958Z 08004KT 22/20 A30 RMK A01 T02170200  RH  090%=      5-min Rain = 0
KTA1 130959Z 08004KT 22/20 A30 RMK A01 T02170200  RH  090%=      5-min Rain = 0
KTA1 131000Z 08004KT 22/20 A30 RMK A01 T02180200  RH  090%=      5-min Rain = 0
KTA1 131001Z 08003KT 22/20 A2999 RMK A01 T02180199  RH  089%=      5-min Rain = 0
KTA1 131002Z 09005KT 22/20 A30 RMK A01 T02180200  RH  090%=      5-min Rain = 0
KTA1 131003Z 10004KT 22/20 A30 RMK A01 T02180200  RH  090%=      5-min Rain = 0
KTA1 131004Z 09005KT 22/20 A2999 RMK A01 T02180200  RH  089%=      5-min Rain = 0
KTA1 131005Z 09004KT 22/20 A2999 RMK A01 T02180199  RH  089%=      5-min Rain = 0
KTA1 131006Z 11005KT 22/20 A2999 RMK A01 T02180199  RH  089%=      5-min Rain = 0
KTA1 131007Z 11005KT 22/20 A2999 RMK A01 T02180200  RH  089%=      5-min Rain = 0
KTA1 131008Z 10004KT 22/20 A2999 RMK A01 T02190201  RH  090%=      5-min Rain = 0
KTA1 131009Z 11004KT 22/20 A2999 RMK A01 T02180201  RH  090%=      5-min Rain = 0
KTA1 131010Z 11004KT 22/20 A2999 RMK A01 T02180201  RH  090%=      5-min Rain = 0
KTA1 131011Z 11005KT 22/20 A2999 RMK A01 T02180201  RH  090%=      5-min Rain = 0
KTA1 131012Z 12005KT 22/20 A2999 RMK A01 T02180201  RH  090%=      5-min Rain = 0
KTA1 131013Z 11005KT 22/20 A2999 RMK A01 T02180201  RH  090%=      5-min Rain = 0
KTA1 131014Z 11005KT 22/20 A2999 RMK A01 T02180201  RH  090%=      5-min Rain = 0
KTA1 131015Z 10005KT 22/20 A2999 RMK A01 T02180201  RH  090%=      5-min Rain = 0
KTA1 131016Z 10005KT 22/20 A2999 RMK A01 T02180200  RH  090%=      5-min Rain = 0
KTA1 131017Z 10004KT 22/20 A2999 RMK A01 T02180200  RH  089%=      5-min Rain = 0
KTA1 131018Z 10004KT 22/20 A2999 RMK A01 T02180199  RH  089%=      5-min Rain = 0
KTA1 131019Z 09004KT 22/20 A2999 RMK A01 T02180200  RH  089%=      5-min Rain = 0
KTA1 131020Z 08004KT 22/20 A2999 RMK A01 T02180200  RH  089%=      5-min Rain = 0
KTA1 131021Z 09004KT 22/20 A2999 RMK A01 T02180201  RH  090%=      5-min Rain = 0
KTA1 131022Z 09004KT 22/20 A2999 RMK A01 T02180201  RH  090%=      5-min Rain = 0
KTA1 131023Z 09004KT 22/20 A2999 RMK A01 T02170201  RH  091%=      5-min Rain = 0
KTA1 131024Z 08004KT 22/20 A2999 RMK A01 T02170201  RH  091%=      5-min Rain = 0
KTA1 131025Z 08004KT 22/20 A2999 RMK A01 T02170201  RH  091%=      5-min Rain = 0
KTA1 131026Z 08004KT 22/20 A2999 RMK A01 T02170201  RH  091%=      5-min Rain = 0
KTA1 131027Z 08004KT 22/20 A2999 RMK A01 T02160201  RH  091%=      5-min Rain = 0
KTA1 131028Z 09005KT 22/20 A2999 RMK A01 T02160201  RH  091%=      5-min Rain = 0
KTA1 131029Z 08005KT 22/20 A2999 RMK A01 T02160201  RH  091%=      5-min Rain = 0
KTA1 131030Z 08005KT 22/20 A2999 RMK A01 T02160201  RH  091%=      5-min Rain = 0
KTA1 131031Z 08005KT 22/20 A2999 RMK A01 T02160201  RH  091%=      5-min Rain = 0
KTA1 131032Z 08005KT 22/20 A2999 RMK A01 T02150201  RH  092%=      5-min Rain = 0
KTA1 131033Z 08004KT 22/20 A2999 RMK A01 T02150201  RH  092%=      5-min Rain = 0
KTA1 131034Z 08005KT 22/20 A2999 RMK A01 T02150201  RH  092%=      5-min Rain = 0
KTA1 131035Z 08004KT 22/20 A2999 RMK A01 T02150201  RH  092%=      5-min Rain = 0
KTA1 131036Z 09004KT 22/20 A2999 RMK A01 T02150201  RH  092%=      5-min Rain = 0
KTA1 131037Z 09005KT 21/20 A2999 RMK A01 T02140201  RH  092%=      5-min Rain = 0
KTA1 131038Z 08005KT 21/20 A2999 RMK A01 T02140201  RH  092%=      5-min Rain = 0
KTA1 131039Z 08004KT 21/20 A2999 RMK A01 T02140200  RH  092%=      5-min Rain = 0
KTA1 131040Z 08004KT 21/20 A2999 RMK A01 T02140201  RH  092%=      5-min Rain = 0
KTA1 131041Z 07003KT 22/20 A2999 RMK A01 T02150201  RH  092%=      5-min Rain = 0
KTA1 131042Z 07003KT 21/20 A2999 RMK A01 T02140201  RH  092%=      5-min Rain = 0
KTA1 131043Z 08004KT 21/20 A2999 RMK A01 T02140201  RH  092%=      5-min Rain = 0
KTA1 131044Z 08005KT 21/20 A2999 RMK A01 T02130201  RH  093%=      5-min Rain = 0
KTA1 131045Z 08004KT 21/20 A2999 RMK A01 T02130201  RH  093%=      5-min Rain = 0
KTA1 131046Z 08005KT 21/20 A2999 RMK A01 T02130201  RH  093%=      5-min Rain = 0
KTA1 131047Z 08005KT 21/20 A2999 RMK A01 T02130201  RH  093%=      5-min Rain = 0
KTA1 131048Z 08005KT 21/20 A2999 RMK A01 T02120201  RH  093%=      5-min Rain = 0
KTA1 131049Z 08005KT 21/20 A2999 RMK A01 T02120201  RH  093%=      5-min Rain = 0
KTA1 131050Z 08005KT 21/20 A2999 RMK A01 T02120200  RH  093%=      5-min Rain = 0
KTA1 131051Z 08005KT 21/20 A2999 RMK A01 T02120201  RH  093%=      5-min Rain = 0
KTA1 131052Z 07005KT 21/20 A2999 RMK A01 T02120200  RH  093%=      5-min Rain = 0
KTA1 131053Z 06005KT 21/20 A2999 RMK A01 T02120200  RH  093%=      5-min Rain = 0
KTA1 131054Z 06005KT 21/20 A2999 RMK A01 T02110201  RH  093%=      5-min Rain = 0
KTA1 131055Z 06005KT 21/20 A2999 RMK A01 T02120201  RH  094%=      5-min Rain = 0
KTA1 131056Z 06006KT 21/20 A2999 RMK A01 T02120201  RH  094%=      5-min Rain = 0
KTA1 131057Z 06005KT 21/20 A2999 RMK A01 T02120201  RH  094%=      5-min Rain = 0
KTA1 131058Z 07004KT 21/20 A2999 RMK A01 T02120202  RH  094%=      5-min Rain = 0
KTA1 131059Z 07004KT 21/20 A2999 RMK A01 T02110201  RH  094%=      5-min Rain = 0
KTA1 131100Z 08005KT 21/20 A2999 RMK A01 T02110201  RH  094%=      5-min Rain = 0
KTA1 131101Z 09005KT 21/20 A2999 RMK A01 T02110201  RH  094%=      5-min Rain = 0
KTA1 131102Z 09005KT 21/20 A2999 RMK A01 T02110201  RH  094%=      5-min Rain = 0
KTA1 131103Z 09005KT 21/20 A2999 RMK A01 T02110201  RH  094%=      5-min Rain = 0
KTA1 131104Z 09005KT 21/20 A2999 RMK A01 T02110201  RH  094%=      5-min Rain = 0
KTA1 131105Z 09005KT 21/20 A2999 RMK A01 T02110201  RH  094%=      5-min Rain = 0
KTA1 131106Z 09005KT 21/20 A2999 RMK A01 T02100200  RH  094%=      5-min Rain = 0
KTA1 131107Z 08005KT 21/20 A30 RMK A01 T02110201  RH  094%=      5-min Rain = 0
KTA1 131108Z 08004KT 21/20 A2999 RMK A01 T02110201  RH  094%=      5-min Rain = 0
KTA1 131109Z 08004KT 21/20 A2999 RMK A01 T02110201  RH  094%=      5-min Rain = 0
KTA1 131110Z 08006KT 21/20 A2999 RMK A01 T02100201  RH  094%=      5-min Rain = 0
KTA1 131111Z 08005KT 21/20 A2999 RMK A01 T02100200  RH  094%=      5-min Rain = 0
KTA1 131112Z 08005KT 21/20 A2999 RMK A01 T02100200  RH  094%=      5-min Rain = 0
KTA1 131113Z 08005KT 21/20 A2999 RMK A01 T02100200  RH  094%=      5-min Rain = 0
KTA1 131114Z 08005KT 21/20 A2999 RMK A01 T02100200  RH  094%=      5-min Rain = 0
KTA1 131115Z 08005KT 21/20 A2999 RMK A01 T02100200  RH  094%=      5-min Rain = 0
KTA1 131116Z 07005KT 21/20 A2999 RMK A01 T02100200  RH  094%=      5-min Rain = 0
KTA1 131117Z 07005KT 21/20 A2999 RMK A01 T02100199  RH  094%=      5-min Rain = 0
KTA1 131118Z 07005KT 21/20 A2999 RMK A01 T02100200  RH  094%=      5-min Rain = 0
KTA1 131119Z 07004KT 21/20 A2999 RMK A01 T02100199  RH  094%=      5-min Rain = 0
KTA1 131120Z 08004KT 21/20 A2999 RMK A01 T02100199  RH  094%=      5-min Rain = 0
KTA1 131121Z 08004KT 21/20 A2999 RMK A01 T02100199  RH  094%=      5-min Rain = 0
KTA1 131122Z 08004KT 21/20 A2999 RMK A01 T02100199  RH  094%=      5-min Rain = 0
KTA1 131123Z 08004KT 21/20 A2999 RMK A01 T02100199  RH  094%=      5-min Rain = 0
KTA1 131124Z 08005KT 21/20 A2999 RMK A01 T02100199  RH  094%=      5-min Rain = 0
KTA1 131125Z 08004KT 21/20 A2999 RMK A01 T02100199  RH  094%=      5-min Rain = 0
KTA1 131126Z 08005KT 21/20 A2999 RMK A01 T02100199  RH  094%=      5-min Rain = 0
KTA1 131127Z 07004KT 21/20 A2999 RMK A01 T02100200  RH  094%=      5-min Rain = 0
KTA1 131128Z 07005KT 21/20 A2999 RMK A01 T02100199  RH  094%=      5-min Rain = 0
KTA1 131129Z 07005KT 21/20 A2999 RMK A01 T02090199  RH  094%=      5-min Rain = 0
KTA1 131130Z 07005KT 21/20 A2999 RMK A01 T02090199  RH  094%=      5-min Rain = 0
KTA1 131131Z 08004KT 21/20 A2999 RMK A01 T02090199  RH  094%=      5-min Rain = 0
KTA1 131132Z 08004KT 21/20 A2999 RMK A01 T02090199  RH  094%=      5-min Rain = 0
KTA1 131133Z 08004KT 21/20 A2999 RMK A01 T02090200  RH  094%=      5-min Rain = 0
KTA1 131134Z 08004KT 21/20 A2999 RMK A01 T02090200  RH  094%=      5-min Rain = 0
KTA1 131135Z 09004KT 21/20 A2999 RMK A01 T02090199  RH  094%=      5-min Rain = 0
KTA1 131136Z 08003KT 21/20 A2999 RMK A01 T02090199  RH  094%=      5-min Rain = 0
KTA1 131137Z 08003KT 21/20 A2999 RMK A01 T02090199  RH  094%=      5-min Rain = 0
KTA1 131138Z 08003KT 21/20 A2999 RMK A01 T02090199  RH  094%=      5-min Rain = 0
KTA1 131139Z 08003KT 21/20 A2999 RMK A01 T02090200  RH  094%=      5-min Rain = 0
KTA1 131140Z 08003KT 21/20 A2999 RMK A01 T02090199  RH  094%=      5-min Rain = 0
KTA1 131141Z 08004KT 21/20 A2999 RMK A01 T02090200  RH  094%=      5-min Rain = 0
KTA1 131142Z 08004KT 21/20 A2999 RMK A01 T02090200  RH  094%=      5-min Rain = 0
KTA1 131143Z 08004KT 21/20 A2999 RMK A01 T02090200  RH  095%=      5-min Rain = 0
KTA1 131144Z 08004KT 21/20 A2999 RMK A01 T02090200  RH  095%=      5-min Rain = 0
KTA1 131145Z 08005KT 21/20 A2999 RMK A01 T02090200  RH  095%=      5-min Rain = 0
KTA1 131146Z 08004KT 21/20 A2999 RMK A01 T02090200  RH  095%=      5-min Rain = 0
KTA1 131147Z 07004KT 21/20 A2999 RMK A01 T02090200  RH  095%=      5-min Rain = 0
KTA1 131148Z 07004KT 21/20 A2999 RMK A01 T02090200  RH  095%=      5-min Rain = 0
KTA1 131149Z 08004KT 21/20 A2999 RMK A01 T02090200  RH  095%=      5-min Rain = 0
KTA1 131150Z 08004KT 21/20 A2999 RMK A01 T02090201  RH  095%=      5-min Rain = 0
KTA1 131151Z 08003KT 21/20 A2999 RMK A01 T02090201  RH  095%=      5-min Rain = 0
KTA1 131152Z 08003KT 21/20 A2999 RMK A01 T02090201  RH  095%=      5-min Rain = 0
KTA1 131153Z 08003KT 21/20 A2999 RMK A01 T02090201  RH  095%=      5-min Rain = 0
KTA1 131154Z 08003KT 21/20 A2999 RMK A01 T02090201  RH  095%=      5-min Rain = 0
KTA1 131155Z 08003KT 21/20 A2999 RMK A01 T02090201  RH  095%=      5-min Rain = 0
KTA1 131156Z 08004KT 21/20 A2999 RMK A01 T02090201  RH  095%=      5-min Rain = 0
KTA1 131157Z 08003KT 21/20 A2999 RMK A01 T02090201  RH  096%=      5-min Rain = 0
KTA1 131158Z 08004KT 21/20 A2999 RMK A01 T02090202  RH  096%=      5-min Rain = 0
KTA1 131159Z 08004KT 21/20 A2999 RMK A01 T02090202  RH  096%=      5-min Rain = 0
KTA1 131200Z 07004KT 21/20 A2999 RMK A01 T02090202  RH  096%=      5-min Rain = 0
KTA1 131201Z 07004KT 21/20 A2999 RMK A01 T02090202  RH  096%=      5-min Rain = 0
KTA1 131202Z 07004KT 21/20 A2999 RMK A01 T02090202  RH  096%=      5-min Rain = 0
KTA1 131203Z 07004KT 21/20 A2999 RMK A01 T02090202  RH  096%=      5-min Rain = 0
KTA1 131204Z 06003KT 21/20 A2999 RMK A01 T02090202  RH  096%=      5-min Rain = 0
KTA1 131205Z 06004KT 21/20 A2999 RMK A01 T02090203  RH  096%=      5-min Rain = 0
KTA1 131206Z 06004KT 21/20 A2999 RMK A01 T02090203  RH  096%=      5-min Rain = 0
KTA1 131207Z 06004KT 21/20 A2999 RMK A01 T02090203  RH  096%=      5-min Rain = 0
KTA1 131208Z 06004KT 21/20 A2999 RMK A01 T02090203  RH  096%=      5-min Rain = 0
KTA1 131209Z 06004KT 21/20 A2999 RMK A01 T02090203  RH  097%=      5-min Rain = 0
KTA1 131210Z 06003KT 21/20 A2999 RMK A01 T02090203  RH  097%=      5-min Rain = 0
KTA1 131211Z 06003KT 21/20 A2999 RMK A01 T02090204  RH  097%=      5-min Rain = 0
KTA1 131212Z 07003KT 21/20 A2999 RMK A01 T02090204  RH  097%=      5-min Rain = 0
KTA1 131213Z 07003KT 21/20 A2999 RMK A01 T02090203  RH  097%=      5-min Rain = 0
KTA1 131214Z 07002KT 21/20 A2999 RMK A01 T02090203  RH  097%=      5-min Rain = 0
KTA1 131215Z 07002KT 21/20 A2999 RMK A01 T02090204  RH  097%=      5-min Rain = 0
KTA1 131216Z 07002KT 21/20 A2999 RMK A01 T02090203  RH  097%=      5-min Rain = 0
KTA1 131217Z 07002KT 21/20 A2999 RMK A01 T02090204  RH  097%=      5-min Rain = 0
KTA1 131218Z 07003KT 21/20 A2999 RMK A01 T02090204  RH  097%=      5-min Rain = 0
KTA1 131219Z 07002KT 21/20 A2999 RMK A01 T02090204  RH  097%=      5-min Rain = 0
KTA1 131220Z 08002KT 21/20 A2999 RMK A01 T02090204  RH  097%=      5-min Rain = 0
KTA1 131221Z 08002KT 21/20 A2999 RMK A01 T02090204  RH  097%=      5-min Rain = 0
KTA1 131222Z 08002KT 21/20 A2999 RMK A01 T02090204  RH  097%=      5-min Rain = 0
KTA1 131223Z 09003KT 21/20 A2999 RMK A01 T02090204  RH  097%=      5-min Rain = 0
KTA1 131224Z 09003KT 21/20 A2999 RMK A01 T02090204  RH  097%=      5-min Rain = 0
KTA1 131225Z 09003KT 21/20 A2999 RMK A01 T02090204  RH  097%=      5-min Rain = 0
KTA1 131226Z 08003KT 21/20 A2999 RMK A01 T02090204  RH  097%=      5-min Rain = 0
KTA1 131227Z 08003KT 21/20 A2999 RMK A01 T02090204  RH  097%=      5-min Rain = 0
KTA1 131228Z 08003KT 21/20 A2999 RMK A01 T02090204  RH  097%=      5-min Rain = 0
KTA1 131229Z 08003KT 21/20 A2999 RMK A01 T02090204  RH  097%=      5-min Rain = 0
KTA1 131230Z 08003KT 21/20 A2999 RMK A01 T02090204  RH  097%=      5-min Rain = 0
KTA1 131231Z 09003KT 21/20 A2999 RMK A01 T02090204  RH  097%=      5-min Rain = 0
KTA1 131232Z 08003KT 21/21 A2999 RMK A01 T02090205  RH  097%=      5-min Rain = 0
KTA1 131233Z 08003KT 21/21 A2999 RMK A01 T02090205  RH  097%=      5-min Rain = 0
KTA1 131234Z 09003KT 21/21 A2999 RMK A01 T02090205  RH  097%=      5-min Rain = 0
KTA1 131235Z 10003KT 21/21 A2999 RMK A01 T02090205  RH  097%=      5-min Rain = 0
KTA1 131236Z 09003KT 21/21 A2999 RMK A01 T02090205  RH  097%=      5-min Rain = 0
KTA1 131237Z 09003KT 21/21 A2999 RMK A01 T02090205  RH  097%=      5-min Rain = 0
KTA1 131238Z 09003KT 21/21 A2999 RMK A01 T02090205  RH  097%=      5-min Rain = 0
KTA1 131239Z 09003KT 21/21 A2999 RMK A01 T02100205  RH  097%=      5-min Rain = 0
KTA1 131240Z 09003KT 21/21 A2999 RMK A01 T02090205  RH  097%=      5-min Rain = 0
KTA1 131241Z 08003KT 21/21 A2999 RMK A01 T02090205  RH  097%=      5-min Rain = 0
KTA1 131242Z 08004KT 21/21 A2999 RMK A01 T02100206  RH  097%=      5-min Rain = 0
KTA1 131243Z 08004KT 21/21 A2999 RMK A01 T02100206  RH  097%=      5-min Rain = 0
KTA1 131244Z 07004KT 21/21 A2999 RMK A01 T02100206  RH  097%=      5-min Rain = 0
KTA1 131245Z 08004KT 21/21 A2999 RMK A01 T02100206  RH  098%=      5-min Rain = 0
KTA1 131246Z 08004KT 21/21 A2999 RMK A01 T02100206  RH  098%=      5-min Rain = 0
KTA1 131247Z 08004KT 21/21 A2999 RMK A01 T02110207  RH  098%=      5-min Rain = 0
KTA1 131248Z 08004KT 21/21 A2999 RMK A01 T02110207  RH  098%=      5-min Rain = 0
KTA1 131249Z 08005KT 21/21 A2999 RMK A01 T02110207  RH  098%=      5-min Rain = 0
KTA1 131250Z 07004KT 21/21 A2999 RMK A01 T02110207  RH  098%=      5-min Rain = 0
KTA1 131251Z 07005KT 21/21 A2999 RMK A01 T02110207  RH  098%=      5-min Rain = 0
KTA1 131252Z 07004KT 21/21 A2999 RMK A01 T02110207  RH  098%=      5-min Rain = 0
KTA1 131253Z 07004KT 21/21 A2999 RMK A01 T02110207  RH  098%=      5-min Rain = 0
KTA1 131254Z 07005KT 21/21 A2999 RMK A01 T02110207  RH  098%=      5-min Rain = 0
KTA1 131255Z 07004KT 21/21 A2999 RMK A01 T02110207  RH  098%=      5-min Rain = 0
KTA1 131256Z 06005KT 21/21 A2999 RMK A01 T02110207  RH  098%=      5-min Rain = 0
KTA1 131257Z 06005KT 21/21 A2999 RMK A01 T02110207  RH  098%=      5-min Rain = 0
KTA1 131258Z 06005KT 21/21 A2999 RMK A01 T02110207  RH  098%=      5-min Rain = 0
KTA1 131259Z 06004KT 21/21 A2999 RMK A01 T02100207  RH  098%=      5-min Rain = 0
KTA1 131300Z 07005KT 21/21 A2999 RMK A01 T02110208  RH  098%=      5-min Rain = 0
KTA1 131301Z 07005KT 21/21 A2999 RMK A01 T02110208  RH  098%=      5-min Rain = 0
KTA1 131302Z 06006KT 21/21 A2999 RMK A01 T02110208  RH  098%=      5-min Rain = 0
KTA1 131303Z 07005KT 21/21 A2999 RMK A01 T02120208  RH  098%=      5-min Rain = 0
KTA1 131304Z 06006KT 21/21 A2999 RMK A01 T02120209  RH  098%=      5-min Rain = 0
KTA1 131305Z 07006KT 21/21 A2999 RMK A01 T02120209  RH  098%=      5-min Rain = 0
KTA1 131306Z 07006KT 21/21 A2999 RMK A01 T02120209  RH  098%=      5-min Rain = 0
KTA1 131307Z 07006KT 21/21 A2999 RMK A01 T02120209  RH  098%=      5-min Rain = 0
KTA1 131308Z 06005KT 21/21 A2999 RMK A01 T02120209  RH  098%=      5-min Rain = 0
KTA1 131309Z 06006KT 21/21 A2999 RMK A01 T02120209  RH  098%=      5-min Rain = 0
KTA1 131310Z 07006KT 21/21 A2999 RMK A01 T02120209  RH  098%=      5-min Rain = 0
KTA1 131311Z 08006KT 21/21 A2999 RMK A01 T02120209  RH  098%=      5-min Rain = 0
KTA1 131312Z 08006KT 21/21 A2999 RMK A01 T02120209  RH  098%=      5-min Rain = 0
KTA1 131313Z 08005KT 21/21 A2999 RMK A01 T02120209  RH  098%=      5-min Rain = 0
KTA1 131314Z 07007KT 21/21 A2999 RMK A01 T02130210  RH  098%=      5-min Rain = 0
KTA1 131315Z 08006KT 21/21 A2999 RMK A01 T02130210  RH  098%=      5-min Rain = 0
KTA1 131316Z 08007KT 21/21 A30 RMK A01 T02130210  RH  098%=      5-min Rain = 0
KTA1 131317Z 08007KT 21/21 A30 RMK A01 T02130210  RH  098%=      5-min Rain = 0
KTA1 131318Z 08007KT 21/21 A30 RMK A01 T02130211  RH  098%=      5-min Rain = 0
KTA1 131319Z 07007KT 21/21 A30 RMK A01 T02140211  RH  098%=      5-min Rain = 0
KTA1 131320Z 08005KT 21/21 A30 RMK A01 T02140211  RH  098%=      5-min Rain = 0
KTA1 131321Z 07005KT 21/21 A30 RMK A01 T02140211  RH  098%=      5-min Rain = 0
KTA1 131322Z 08006KT 21/21 A30 RMK A01 T02140212  RH  098%=      5-min Rain = 0
KTA1 131323Z 08007KT 21/21 A30 RMK A01 T02140212  RH  098%=      5-min Rain = 0
KTA1 131324Z 07006KT 21/21 A30 RMK A01 T02140211  RH  098%=      5-min Rain = 0
KTA1 131325Z 07006KT 21/21 A30 RMK A01 T02140211  RH  098%=      5-min Rain = 0
KTA1 131326Z 07007KT 21/21 A30 RMK A01 T02140212  RH  098%=      5-min Rain = 0
KTA1 131327Z 09007KT 21/21 A30 RMK A01 T02140211  RH  098%=      5-min Rain = 0
KTA1 131328Z 08007KT 21/21 A30 RMK A01 T02140212  RH  098%=      5-min Rain = 0
KTA1 131329Z 09006KT 21/21 A30 RMK A01 T02140211  RH  098%=      5-min Rain = 0
KTA1 131330Z 08008KT 21/21 A30 RMK A01 T02140212  RH  098%=      5-min Rain = 0
KTA1 131331Z 08008KT 21/21 A30 RMK A01 T02140212  RH  098%=      5-min Rain = 0
KTA1 131332Z 08007KT 21/21 A30 RMK A01 T02140212  RH  098%=      5-min Rain = 0
KTA1 131333Z 08008KT 21/21 A30 RMK A01 T02140212  RH  098%=      5-min Rain = 0
KTA1 131334Z 08008KT 21/21 A30 RMK A01 T02140211  RH  098%=      5-min Rain = 0
KTA1 131335Z 08008KT 21/21 A30 RMK A01 T02140211  RH  098%=      5-min Rain = 0
KTA1 131336Z 09008KT 21/21 A30 RMK A01 T02140211  RH  098%=      5-min Rain = 0
KTA1 131337Z 08007KT 21/21 A30 RMK A01 T02140211  RH  098%=      5-min Rain = 0
KTA1 131338Z 07008KT 22/21 A30 RMK A01 T02150212  RH  098%=      5-min Rain = 0
KTA1 131339Z 07007KT 22/21 A30 RMK A01 T02150212  RH  098%=      5-min Rain = 0
KTA1 131340Z 07007KT 22/21 A30 RMK A01 T02160213  RH  098%=      5-min Rain = 0
KTA1 131341Z 08006KT 22/21 A30 RMK A01 T02160213  RH  098%=      5-min Rain = 0
KTA1 131342Z 08006KT 22/21 A30 RMK A01 T02160213  RH  098%=      5-min Rain = 0
KTA1 131343Z 07005KT 22/21 A30 RMK A01 T02160214  RH  098%=      5-min Rain = 0
KTA1 131344Z 07004KT 22/21 A30 RMK A01 T02160214  RH  098%=      5-min Rain = 0
KTA1 131345Z 08006KT 22/21 A30 RMK A01 T02170214  RH  098%=      5-min Rain = 0
KTA1 131346Z 08008KT 22/21 A30 RMK A01 T02170214  RH  098%=      5-min Rain = 0
KTA1 131347Z 08007KT 22/21 A30 RMK A01 T02160213  RH  098%=      5-min Rain = 0
KTA1 131348Z 08006KT 22/21 A30 RMK A01 T02170214  RH  098%=      5-min Rain = 0
KTA1 131349Z 08008KT 22/21 A30 RMK A01 T02170214  RH  098%=      5-min Rain = 0
KTA1 131350Z 07007KT 22/21 A30 RMK A01 T02160213  RH  098%=      5-min Rain = 0
KTA1 131351Z 08007KT 22/21 A30 RMK A01 T02160213  RH  098%=      5-min Rain = 0
KTA1 131352Z 08006KT 22/21 A30 RMK A01 T02160212  RH  098%=      5-min Rain = 0
KTA1 131353Z 08007KT 22/21 A30 RMK A01 T02160213  RH  098%=      5-min Rain = 0
KTA1 131354Z 08007KT 22/21 A30 RMK A01 T02160212  RH  098%=      5-min Rain = 0
KTA1 131355Z 07006KT 22/21 A30 RMK A01 T02170213  RH  098%=      5-min Rain = 0
KTA1 131356Z 07006KT 22/21 A30 RMK A01 T02180214  RH  098%=      5-min Rain = 0
KTA1 131357Z 07007KT 22/21 A30 RMK A01 T02190214  RH  097%=      5-min Rain = 0
KTA1 131358Z 08007KT 22/22 A30 RMK A01 T02200215  RH  097%=      5-min Rain = 0
KTA1 131359Z 08007KT 22/21 A30 RMK A01 T02200214  RH  097%=      5-min Rain = 0
KTA1 131400Z 07007KT 22/21 A30 RMK A01 T02200214  RH  096%=      5-min Rain = 0
KTA1 131401Z 07007KT 22/21 A30 RMK A01 T02200214  RH  096%=      5-min Rain = 0
KTA1 131402Z 07007KT 22/21 A30 RMK A01 T02200213  RH  096%=      5-min Rain = 0
KTA1 131403Z 08007KT 22/21 A30 RMK A01 T02210214  RH  096%=      5-min Rain = 0
KTA1 131404Z 08008KT 22/21 A3001 RMK A01 T02210214  RH  096%=      5-min Rain = 0
KTA1 131405Z 09008KT 22/21 A3001 RMK A01 T02210213  RH  095%=      5-min Rain = 0
KTA1 131406Z 07006KT 22/21 A3001 RMK A01 T02210213  RH  095%=      5-min Rain = 0
KTA1 131407Z 08007KT 22/21 A3001 RMK A01 T02220214  RH  095%=      5-min Rain = 0
KTA1 131408Z 08006KT 22/21 A3001 RMK A01 T02230214  RH  095%=      5-min Rain = 0
KTA1 131409Z 08007KT 22/21 A3001 RMK A01 T02230214  RH  095%=      5-min Rain = 0
KTA1 131410Z 09006KT 22/21 A3001 RMK A01 T02230213  RH  094%=      5-min Rain = 0
KTA1 131411Z 08008KT 22/21 A3001 RMK A01 T02230213  RH  094%=      5-min Rain = 0
KTA1 131412Z 07008KT 22/21 A3001 RMK A01 T02240213  RH  094%=      5-min Rain = 0
KTA1 131413Z 08007KT 22/21 A3001 RMK A01 T02240213  RH  093%=      5-min Rain = 0
KTA1 131414Z 07009KT 23/21 A3001 RMK A01 T02250213  RH  093%=      5-min Rain = 0
KTA1 131415Z 08008KT 23/21 A3001 RMK A01 T02250213  RH  093%=      5-min Rain = 0
KTA1 131416Z 09008KT 23/21 A3001 RMK A01 T02260213  RH  092%=      5-min Rain = 0
KTA1 131417Z 09008KT 23/21 A3001 RMK A01 T02260212  RH  092%=      5-min Rain = 0
KTA1 131418Z 08007KT 23/21 A3001 RMK A01 T02250211  RH  092%=      5-min Rain = 0
KTA1 131419Z 08008KT 23/21 A3001 RMK A01 T02250212  RH  092%=      5-min Rain = 0
KTA1 131420Z 08008KT 23/21 A3001 RMK A01 T02260214  RH  093%=      5-min Rain = 0
KTA1 131421Z 08009KT 23/21 A3001 RMK A01 T02260213  RH  092%=      5-min Rain = 0
KTA1 131422Z 07007KT 23/21 A3001 RMK A01 T02260212  RH  092%=      5-min Rain = 0
KTA1 131423Z 08007KT 23/21 A3001 RMK A01 T02270212  RH  092%=      5-min Rain = 0
KTA1 131424Z 08008KT 23/21 A3001 RMK A01 T02270212  RH  091%=      5-min Rain = 0
KTA1 131425Z 08007KT 23/21 A3001 RMK A01 T02260211  RH  091%=      5-min Rain = 0
KTA1 131426Z 06007KT 23/21 A3001 RMK A01 T02260212  RH  092%=      5-min Rain = 0
KTA1 131427Z 07007KT 23/21 A3001 RMK A01 T02270213  RH  091%=      5-min Rain = 0
KTA1 131428Z 07007KT 23/21 A3001 RMK A01 T02270213  RH  091%=      5-min Rain = 0
KTA1 131429Z 07007KT 23/21 A3001 RMK A01 T02270212  RH  092%=      5-min Rain = 0
KTA1 131430Z 07007KT 23/21 A3001 RMK A01 T02270214  RH  092%=      5-min Rain = 0
KTA1 131431Z 07008KT 23/21 A3001 RMK A01 T02280214  RH  092%=      5-min Rain = 0
KTA1 131432Z 08009KT 23/21 A3001 RMK A01 T02290214  RH  091%=      5-min Rain = 0
KTA1 131433Z 07008KT 23/21 A3001 RMK A01 T02290212  RH  090%=      5-min Rain = 0
KTA1 131434Z 07009KT 23/21 A3001 RMK A01 T02290211  RH  090%=      5-min Rain = 0
KTA1 131435Z 08008KT 23/21 A3001 RMK A01 T02300212  RH  089%=      5-min Rain = 0
KTA1 131436Z 08009KT 23/21 A3001 RMK A01 T02310213  RH  090%=      5-min Rain = 0
KTA1 131437Z 08009KT 23/21 A3001 RMK A01 T02320212  RH  089%=      5-min Rain = 0
KTA1 131438Z 08009KT 23/21 A3001 RMK A01 T02320213  RH  089%=      5-min Rain = 0
KTA1 131439Z 08007KT 23/21 A3001 RMK A01 T02330212  RH  088%=      5-min Rain = 0
KTA1 131440Z 09007KT 23/21 A30 RMK A01 T02340214  RH  088%=      5-min Rain = 0
KTA1 131441Z 09007KT 24/22 A30 RMK A01 T02350215  RH  089%=      5-min Rain = 0
KTA1 131442Z 09007KT 24/21 A30 RMK A01 T02360213  RH  087%=      5-min Rain = 0
KTA1 131443Z 08008KT 24/21 A30 RMK A01 T02360214  RH  087%=      5-min Rain = 0
KTA1 131444Z 08009KT 24/21 A30 RMK A01 T02360213  RH  086%=      5-min Rain = 0
KTA1 131445Z 07009KT 24/21 A30 RMK A01 T02360214  RH  087%=      5-min Rain = 0
KTA1 131446Z 07008KT 24/22 A30 RMK A01 T02360216  RH  088%=      5-min Rain = 0
KTA1 131447Z 08007KT 24/22 A30 RMK A01 T02360215  RH  088%=      5-min Rain = 0
KTA1 131448Z 08008KT 24/22 A30 RMK A01 T02360216  RH  089%=      5-min Rain = 0
KTA1 131449Z 09008KT 24/22 A30 RMK A01 T02370216  RH  088%=      5-min Rain = 0
KTA1 131450Z 09007KT 24/21 A30 RMK A01 T02370213  RH  086%=      5-min Rain = 0
KTA1 131451Z 09008KT 24/22 A30 RMK A01 T02380215  RH  087%=      5-min Rain = 0
KTA1 131452Z 08010KT 24/21 A30 RMK A01 T02390214  RH  086%=      5-min Rain = 0
KTA1 131453Z 09010KT 24/21 A30 RMK A01 T02380213  RH  086%=      5-min Rain = 0
KTA1 131454Z 08008KT 24/21 A30 RMK A01 T02370213  RH  086%=      5-min Rain = 0
KTA1 131455Z 07007KT 24/21 A30 RMK A01 T02360214  RH  087%=      5-min Rain = 0
KTA1 131456Z 08008KT 24/22 A30 RMK A01 T02370216  RH  088%=      5-min Rain = 0
KTA1 131457Z 08007KT 24/22 A30 RMK A01 T02380215  RH  087%=      5-min Rain = 0
KTA1 131458Z 07007KT 24/22 A30 RMK A01 T02380216  RH  087%=      5-min Rain = 0
KTA1 131459Z 08008KT 24/22 A3001 RMK A01 T02390217  RH  087%=      5-min Rain = 0
KTA1 131500Z 08008KT 24/22 A3001 RMK A01 T02390217  RH  088%=      5-min Rain = 0
KTA1 131501Z 06008KT 24/22 A30 RMK A01 T02390217  RH  087%=      5-min Rain = 0
KTA1 131502Z 07009KT 24/22 A30 RMK A01 T02390217  RH  088%=      5-min Rain = 0
KTA1 131503Z 08009KT 24/22 A3001 RMK A01 T02390216  RH  087%=      5-min Rain = 0
KTA1 131504Z 10009KT 24/21 A30 RMK A01 T02390213  RH  086%=      5-min Rain = 0
KTA1 131505Z 10007KT 24/21 A30 RMK A01 T02390211  RH  084%=      5-min Rain = 0
KTA1 131506Z 09008KT 24/21 A30 RMK A01 T02400213  RH  085%=      5-min Rain = 0
KTA1 131507Z 07009KT 24/21 A30 RMK A01 T02410214  RH  085%=      5-min Rain = 0
KTA1 131508Z 08009KT 24/22 A30 RMK A01 T02410215  RH  085%=      5-min Rain = 0
KTA1 131509Z 09009KT 24/21 A30 RMK A01 T02410214  RH  085%=      5-min Rain = 0
KTA1 131510Z 09007KT 24/21 A30 RMK A01 T02400214  RH  085%=      5-min Rain = 0
KTA1 131511Z 10008KT 24/21 A30 RMK A01 T02410214  RH  085%=      5-min Rain = 0
KTA1 131512Z 11007KT 24/21 A30 RMK A01 T02410211  RH  083%=      5-min Rain = 0
KTA1 131513Z 11008KT 24/21 A30 RMK A01 T02410213  RH  084%=      5-min Rain = 0
KTA1 131514Z 11009KT 24/21 A30 RMK A01 T02420214  RH  084%=      5-min Rain = 0
KTA1 131515Z 10007KT 24/21 A30 RMK A01 T02430211  RH  083%=      5-min Rain = 0
KTA1 131516Z 09007KT 24/21 A30 RMK A01 T02430213  RH  083%=      5-min Rain = 0
KTA1 131517Z 10007KT 24/22 A30 RMK A01 T02440215  RH  084%=      5-min Rain = 0
KTA1 131518Z 11008KT 24/22 A30 RMK A01 T02440215  RH  084%=      5-min Rain = 0
KTA1 131519Z 10008KT 24/22 A3001 RMK A01 T02440216  RH  085%=      5-min Rain = 0
KTA1 131520Z 10009KT 24/21 A3001 RMK A01 T02430213  RH  084%=      5-min Rain = 0
KTA1 131521Z 10009KT 24/21 A3001 RMK A01 T02420214  RH  084%=      5-min Rain = 0
KTA1 131522Z 11007KT 24/21 A3001 RMK A01 T02420214  RH  085%=      5-min Rain = 0
KTA1 131523Z 12006KT 24/22 A3001 RMK A01 T02410215  RH  085%=      5-min Rain = 0
KTA1 131524Z 10007KT 24/22 A3001 RMK A01 T02410216  RH  086%=      5-min Rain = 0
KTA1 131525Z 11006KT 24/22 A3001 RMK A01 T02410215  RH  085%=      5-min Rain = 0
KTA1 131526Z 10007KT 24/22 A3001 RMK A01 T02420216  RH  085%=      5-min Rain = 0
KTA1 131527Z 10008KT 24/22 A3001 RMK A01 T02440216  RH  085%=      5-min Rain = 0
KTA1 131528Z 11005KT 24/21 A3001 RMK A01 T02440214  RH  083%=      5-min Rain = 0
KTA1 131529Z 11006KT 24/22 A3001 RMK A01 T02440216  RH  084%=      5-min Rain = 0
KTA1 131530Z 11007KT 24/22 A3001 RMK A01 T02440216  RH  085%=      5-min Rain = 0
KTA1 131531Z 09007KT 24/22 A30 RMK A01 T02430215  RH  084%=      5-min Rain = 0
KTA1 131532Z 11008KT 24/21 A30 RMK A01 T02420214  RH  084%=      5-min Rain = 0
KTA1 131533Z 10009KT 24/21 A30 RMK A01 T02430214  RH  084%=      5-min Rain = 0
KTA1 131534Z 11008KT 24/21 A30 RMK A01 T02440213  RH  083%=      5-min Rain = 0
KTA1 131535Z 11006KT 25/22 A30 RMK A01 T02450216  RH  084%=      5-min Rain = 0
KTA1 131536Z 11005KT 25/21 A30 RMK A01 T02450213  RH  082%=      5-min Rain = 0
KTA1 131537Z 11007KT 25/22 A30 RMK A01 T02450215  RH  083%=      5-min Rain = 0
KTA1 131538Z 11009KT 25/22 A30 RMK A01 T02470215  RH  083%=      5-min Rain = 0
KTA1 131539Z 11007KT 25/21 A30 RMK A01 T02470214  RH  082%=      5-min Rain = 0
KTA1 131540Z 12006KT 25/21 A30 RMK A01 T02470214  RH  082%=      5-min Rain = 0
KTA1 131541Z 13008KT 25/22 A30 RMK A01 T02490215  RH  081%=      5-min Rain = 0
KTA1 131542Z 13006KT 25/21 A30 RMK A01 T02500213  RH  080%=      5-min Rain = 0
KTA1 131543Z 13007KT 25/22 A30 RMK A01 T02510215  RH  081%=      5-min Rain = 0
KTA1 131544Z 12006KT 25/22 A30 RMK A01 T02520217  RH  081%=      5-min Rain = 0
KTA1 131545Z 10004KT 25/22 A30 RMK A01 T02520215  RH  080%=      5-min Rain = 0
KTA1 131546Z 11008KT 25/21 A30 RMK A01 T02520214  RH  079%=      5-min Rain = 0
KTA1 131547Z 11007KT 25/21 A30 RMK A01 T02510214  RH  080%=      5-min Rain = 0
KTA1 131548Z 11007KT 25/22 A30 RMK A01 T02510216  RH  081%=      5-min Rain = 0
KTA1 131549Z 11007KT 25/22 A30 RMK A01 T02510215  RH  081%=      5-min Rain = 0
KTA1 131550Z 11005KT 25/21 A30 RMK A01 T02510214  RH  080%=      5-min Rain = 0
KTA1 131551Z 11006KT 25/22 A30 RMK A01 T02510218  RH  082%=      5-min Rain = 0
KTA1 131552Z 11006KT 25/22 A30 RMK A01 T02500215  RH  081%=      5-min Rain = 0
KTA1 131553Z 11007KT 25/22 A30 RMK A01 T02510219  RH  083%=      5-min Rain = 0
KTA1 131554Z 10008KT 25/22 A30 RMK A01 T02530216  RH  080%=      5-min Rain = 0
KTA1 131555Z 12006KT 25/22 A30 RMK A01 T02530215  RH  079%=      5-min Rain = 0
KTA1 131556Z 12006KT 25/21 A30 RMK A01 T02540213  RH  078%=      5-min Rain = 0
KTA1 131557Z 13005KT 25/22 A30 RMK A01 T02540217  RH  080%=      5-min Rain = 0
KTA1 131558Z 11006KT 26/22 A30 RMK A01 T02560218  RH  080%=      5-min Rain = 0
KTA1 131559Z 11009KT 26/22 A30 RMK A01 T02570219  RH  079%=      5-min Rain = 0
KTA1 131600Z 12007KT 26/22 A30 RMK A01 T02570215  RH  078%=      5-min Rain = 0
KTA1 131601Z 10006KT 26/22 A30 RMK A01 T02570216  RH  078%=      5-min Rain = 0
KTA1 131602Z 11004KT 26/22 A30 RMK A01 T02570216  RH  078%=      5-min Rain = 0
KTA1 131603Z 12005KT 26/22 A30 RMK A01 T02580216  RH  077%=      5-min Rain = 0
KTA1 131604Z 11006KT 26/22 A30 RMK A01 T02590215  RH  077%=      5-min Rain = 0
KTA1 131605Z 11006KT 26/21 A30 RMK A01 T02590213  RH  076%=      5-min Rain = 0
KTA1 131606Z 12004KT 26/22 A30 RMK A01 T02570216  RH  078%=      5-min Rain = 0
KTA1 131607Z 11003KT 26/21 A30 RMK A01 T02570214  RH  077%=      5-min Rain = 0
KTA1 131608Z 10006KT 26/22 A30 RMK A01 T02570215  RH  077%=      5-min Rain = 0
KTA1 131609Z 11007KT 26/22 A30 RMK A01 T02580216  RH  078%=      5-min Rain = 0
KTA1 131610Z 11006KT 26/22 A30 RMK A01 T02590217  RH  077%=      5-min Rain = 0
KTA1 131611Z 11004KT 26/22 A30 RMK A01 T02600219  RH  078%=      5-min Rain = 0
KTA1 131612Z 10005KT 26/22 A30 RMK A01 T02610220  RH  078%=      5-min Rain = 0
KTA1 131613Z 08004KT 26/22 A30 RMK A01 T02620218  RH  077%=      5-min Rain = 0
KTA1 131614Z 09003KT 26/22 A30 RMK A01 T02620215  RH  075%=      5-min Rain = 0
KTA1 131615Z 10004KT 26/22 A30 RMK A01 T02610215  RH  076%=      5-min Rain = 0
KTA1 131616Z 11005KT 26/22 A30 RMK A01 T02620219  RH  077%=      5-min Rain = 0
KTA1 131617Z 13005KT 26/22 A30 RMK A01 T02620217  RH  076%=      5-min Rain = 0
KTA1 131618Z 14005KT 26/22 A30 RMK A01 T02620218  RH  076%=      5-min Rain = 0
KTA1 131619Z 13005KT 26/22 A30 RMK A01 T02640220  RH  077%=      5-min Rain = 0
KTA1 131620Z 10004KT 27/22 A30 RMK A01 T02650218  RH  075%=      5-min Rain = 0
KTA1 131621Z 11004KT 27/22 A30 RMK A01 T02660216  RH  074%=      5-min Rain = 0
KTA1 131622Z 15005KT 27/22 A30 RMK A01 T02660217  RH  075%=      5-min Rain = 0
KTA1 131623Z 15005KT 27/22 A30 RMK A01 T02660215  RH  073%=      5-min Rain = 0
KTA1 131624Z 15006KT 27/22 A30 RMK A01 T02660215  RH  073%=      5-min Rain = 0
KTA1 131625Z 15005KT 27/22 A30 RMK A01 T02670215  RH  073%=      5-min Rain = 0
KTA1 131626Z 14003KT 27/22 A30 RMK A01 T02670215  RH  073%=      5-min Rain = 0
KTA1 131627Z 14003KT 27/22 A30 RMK A01 T02680215  RH  073%=      5-min Rain = 0
KTA1 131628Z 14004KT 27/21 A30 RMK A01 T02680214  RH  072%=      5-min Rain = 0
KTA1 131629Z 11006KT 27/22 A30 RMK A01 T02680215  RH  073%=      5-min Rain = 0
KTA1 131630Z 12005KT 27/21 A30 RMK A01 T02670212  RH  072%=      5-min Rain = 0
KTA1 131631Z 10004KT 27/21 A30 RMK A01 T02660213  RH  073%=      5-min Rain = 0
KTA1 131632Z 08004KT 27/21 A30 RMK A01 T02650212  RH  072%=      5-min Rain = 0
KTA1 131633Z 14005KT 27/22 A30 RMK A01 T02650215  RH  074%=      5-min Rain = 0
KTA1 131634Z 15006KT 27/22 A30 RMK A01 T02670221  RH  076%=      5-min Rain = 0
KTA1 131635Z 15004KT 27/22 A30 RMK A01 T02690218  RH  074%=      5-min Rain = 0
KTA1 131636Z 16004KT 27/22 A30 RMK A01 T02700217  RH  073%=      5-min Rain = 0
KTA1 131637Z 11004KT 27/22 A30 RMK A01 T02700218  RH  073%=      5-min Rain = 0
KTA1 131638Z 10004KT 27/22 A30 RMK A01 T02710218  RH  073%=      5-min Rain = 0
KTA1 131639Z 10003KT 27/22 A30 RMK A01 T02710215  RH  071%=      5-min Rain = 0
KTA1 131640Z 12004KT 27/22 A30 RMK A01 T02700217  RH  073%=      5-min Rain = 0
KTA1 131641Z 14006KT 27/22 A30 RMK A01 T02710216  RH  072%=      5-min Rain = 0
KTA1 131642Z 13005KT 27/22 A30 RMK A01 T02710216  RH  072%=      5-min Rain = 0
KTA1 131643Z 12005KT 27/22 A30 RMK A01 T02730218  RH  072%=      5-min Rain = 0
KTA1 131644Z 11004KT 27/21 A30 RMK A01 T02730212  RH  070%=      5-min Rain = 0
KTA1 131645Z 13003KT 27/21 A30 RMK A01 T02710214  RH  071%=      5-min Rain = 0
KTA1 131646Z 11005KT 27/22 A30 RMK A01 T02720220  RH  073%=      5-min Rain = 0
KTA1 131647Z 08004KT 27/21 A30 RMK A01 T02730214  RH  070%=      5-min Rain = 0
KTA1 131648Z 11004KT 27/21 A30 RMK A01 T02730214  RH  070%=      5-min Rain = 0
KTA1 131649Z 11003KT 27/22 A30 RMK A01 T02720216  RH  071%=      5-min Rain = 0
KTA1 131650Z 10006KT 27/22 A30 RMK A01 T02730215  RH  071%=      5-min Rain = 0
KTA1 131651Z 12005KT 27/21 A30 RMK A01 T02720214  RH  070%=      5-min Rain = 0
KTA1 131652Z 14004KT 27/22 A30 RMK A01 T02710218  RH  072%=      5-min Rain = 0
KTA1 131653Z 13003KT 27/22 A30 RMK A01 T02720215  RH  071%=      5-min Rain = 0
KTA1 131654Z 10004KT 27/22 A30 RMK A01 T02730215  RH  070%=      5-min Rain = 0
KTA1 131655Z 10004KT 27/22 A30 RMK A01 T02740215  RH  070%=      5-min Rain = 0
KTA1 131656Z 10006KT 28/22 A30 RMK A01 T02750222  RH  073%=      5-min Rain = 0
KTA1 131657Z 10006KT 28/22 A30 RMK A01 T02760215  RH  069%=      5-min Rain = 0
KTA1 131658Z 09004KT 27/21 A30 RMK A01 T02740212  RH  069%=      5-min Rain = 0
KTA1 131659Z 08004KT 27/22 A30 RMK A01 T02730215  RH  071%=      5-min Rain = 0
KTA1 131700Z 08003KT 27/22 A30 RMK A01 T02730215  RH  071%=      5-min Rain = 0
KTA1 131701Z 11005KT 27/22 A30 RMK A01 T02740215  RH  070%=      5-min Rain = 0
KTA1 131702Z 12004KT 27/21 A30 RMK A01 T02740213  RH  069%=      5-min Rain = 0
KTA1 131703Z 13003KT 27/21 A30 RMK A01 T02740212  RH  069%=      5-min Rain = 0
KTA1 131704Z 09005KT 27/21 A30 RMK A01 T02740213  RH  069%=      5-min Rain = 0
KTA1 131705Z 09004KT 28/22 A30 RMK A01 T02750215  RH  070%=      5-min Rain = 0
KTA1 131706Z 08003KT 28/21 A30 RMK A01 T02750212  RH  069%=      5-min Rain = 0
KTA1 131707Z 07003KT 28/21 A30 RMK A01 T02750211  RH  068%=      5-min Rain = 0
KTA1 131708Z 09003KT 28/22 A2999 RMK A01 T02760220  RH  072%=      5-min Rain = 0
KTA1 131709Z 11005KT 28/22 A2999 RMK A01 T02780222  RH  071%=      5-min Rain = 0
KTA1 131710Z 11005KT 28/22 A2999 RMK A01 T02790219  RH  070%=      5-min Rain = 0
KTA1 131711Z 08005KT 28/22 A2999 RMK A01 T02800222  RH  071%=      5-min Rain = 0
KTA1 131712Z 07005KT 28/22 A30 RMK A01 T02800217  RH  069%=      5-min Rain = 0
KTA1 131713Z 07005KT 28/22 A30 RMK A01 T02790217  RH  069%=      5-min Rain = 0
KTA1 131714Z 09006KT 28/22 A30 RMK A01 T02780218  RH  070%=      5-min Rain = 0
KTA1 131715Z 11003KT 28/21 A30 RMK A01 T02780213  RH  068%=      5-min Rain = 0
KTA1 131716Z 11002KT 28/21 A30 RMK A01 T02780211  RH  067%=      5-min Rain = 0
KTA1 131717Z 10004KT 28/22 A2999 RMK A01 T02780217  RH  070%=      5-min Rain = 0
KTA1 131718Z 07004KT 28/22 A2999 RMK A01 T02790221  RH  071%=      5-min Rain = 0
KTA1 131719Z 07005KT 28/22 A2999 RMK A01 T02810220  RH  070%=      5-min Rain = 0
KTA1 131720Z 07006KT 28/22 A2999 RMK A01 T02810220  RH  070%=      5-min Rain = 0
KTA1 131721Z 08005KT 28/22 A2999 RMK A01 T02800220  RH  070%=      5-min Rain = 0
KTA1 131722Z 11006KT 28/22 A2999 RMK A01 T02800218  RH  069%=      5-min Rain = 0
KTA1 131723Z 10004KT 28/22 A2999 RMK A01 T02800219  RH  069%=      5-min Rain = 0
KTA1 131724Z 08004KT 28/22 A2999 RMK A01 T02800219  RH  069%=      5-min Rain = 0
KTA1 131725Z 07003KT 28/22 A2999 RMK A01 T02800216  RH  068%=      5-min Rain = 0
KTA1 131726Z 05003KT 28/22 A2999 RMK A01 T02800217  RH  068%=      5-min Rain = 0
KTA1 131727Z 03003KT 28/22 A2999 RMK A01 T02800217  RH  068%=      5-min Rain = 0
KTA1 131728Z 08006KT 28/22 A2999 RMK A01 T02810218  RH  069%=      5-min Rain = 0
KTA1 131729Z 09005KT 28/22 A2999 RMK A01 T02820224  RH  070%=      5-min Rain = 0
KTA1 131730Z 11004KT 29/22 A2999 RMK A01 T02850219  RH  067%=      5-min Rain = 0
KTA1 131731Z 09005KT 29/22 A2999 RMK A01 T02860223  RH  069%=      5-min Rain = 0
KTA1 131732Z 09006KT 29/22 A2999 RMK A01 T02860217  RH  066%=      5-min Rain = 0
KTA1 131733Z 08004KT 29/21 A2999 RMK A01 T02860213  RH  065%=      5-min Rain = 0
KTA1 131734Z 09004KT 28/22 A2999 RMK A01 T02840218  RH  067%=      5-min Rain = 0
KTA1 131735Z 08005KT 28/22 A2999 RMK A01 T02840220  RH  068%=      5-min Rain = 0
KTA1 131736Z 07005KT 29/22 A2999 RMK A01 T02850221  RH  068%=      5-min Rain = 0
KTA1 131737Z 06005KT 29/22 A2999 RMK A01 T02860220  RH  067%=      5-min Rain = 0
KTA1 131738Z 06004KT 29/22 A2999 RMK A01 T02850219  RH  067%=      5-min Rain = 0
KTA1 131739Z 06006KT 28/22 A2999 RMK A01 T02840216  RH  067%=      5-min Rain = 0
KTA1 131740Z 06005KT 28/22 A2999 RMK A01 T02830217  RH  068%=      5-min Rain = 0
KTA1 131741Z 08004KT 28/22 A2999 RMK A01 T02830219  RH  068%=      5-min Rain = 0
KTA1 131742Z 05003KT 28/22 A2999 RMK A01 T02840220  RH  068%=      5-min Rain = 0
KTA1 131743Z 04004KT 28/22 A2999 RMK A01 T02840220  RH  069%=      5-min Rain = 0
KTA1 131744Z 04005KT 28/22 A2998 RMK A01 T02840218  RH  067%=      5-min Rain = 0
KTA1 131745Z 05004KT 28/22 A2998 RMK A01 T02840219  RH  068%=      5-min Rain = 0
KTA1 131746Z 09005KT 28/22 A2998 RMK A01 T02830220  RH  069%=      5-min Rain = 0
KTA1 131747Z 10005KT 29/22 A2998 RMK A01 T02850219  RH  068%=      5-min Rain = 0
KTA1 131748Z 09006KT 29/22 A2998 RMK A01 T02860217  RH  066%=      5-min Rain = 0
KTA1 131749Z 09006KT 29/22 A2998 RMK A01 T02860219  RH  067%=      5-min Rain = 0
KTA1 131750Z 08006KT 29/22 A2998 RMK A01 T02870221  RH  067%=      5-min Rain = 0
KTA1 131751Z 08004KT 29/22 A2998 RMK A01 T02880219  RH  066%=      5-min Rain = 0
KTA1 131752Z 06004KT 29/22 A2998 RMK A01 T02890221  RH  067%=      5-min Rain = 0
KTA1 131753Z 08005KT 29/22 A2998 RMK A01 T02890219  RH  066%=      5-min Rain = 0
KTA1 131754Z 08004KT 29/21 A2998 RMK A01 T02890214  RH  064%=      5-min Rain = 0
KTA1 131755Z 09004KT 29/22 A2998 RMK A01 T02880216  RH  065%=      5-min Rain = 0
KTA1 131756Z 11007KT 29/22 A2998 RMK A01 T02870220  RH  067%=      5-min Rain = 0
KTA1 131757Z 11007KT 29/22 A2998 RMK A01 T02880218  RH  066%=      5-min Rain = 0
KTA1 131758Z 11007KT 29/22 A2998 RMK A01 T02880220  RH  067%=      5-min Rain = 0
KTA1 131759Z 10007KT 29/22 A2998 RMK A01 T02890220  RH  066%=      5-min Rain = 0
KTA1 131800Z 08006KT 29/22 A2998 RMK A01 T02890216  RH  065%=      5-min Rain = 0
KTA1 131801Z 07005KT 29/22 A2998 RMK A01 T02890218  RH  065%=      5-min Rain = 0
KTA1 131802Z 06004KT 29/22 A2998 RMK A01 T02900217  RH  065%=      5-min Rain = 0
KTA1 131803Z 08003KT 29/22 A2998 RMK A01 T02900218  RH  065%=      5-min Rain = 0
KTA1 131804Z 10005KT 29/22 A2998 RMK A01 T02900218  RH  065%=      5-min Rain = 0
KTA1 131805Z 14005KT 29/22 A2998 RMK A01 T02920219  RH  065%=      5-min Rain = 0
KTA1 131806Z 12005KT 29/22 A2998 RMK A01 T02930219  RH  064%=      5-min Rain = 0
KTA1 131807Z 10005KT 29/22 A2998 RMK A01 T02940219  RH  064%=      5-min Rain = 0
KTA1 131808Z 10003KT 29/22 A2998 RMK A01 T02940216  RH  063%=      5-min Rain = 0
KTA1 131809Z 10002KT 29/21 A2998 RMK A01 T02930214  RH  062%=      5-min Rain = 0
KTA1 131810Z 08004KT 29/21 A2998 RMK A01 T02930214  RH  062%=      5-min Rain = 0
KTA1 131811Z 08003KT 29/21 A2998 RMK A01 T02920214  RH  063%=      5-min Rain = 0
KTA1 131812Z 08005KT 29/22 A2998 RMK A01 T02920215  RH  063%=      5-min Rain = 0
KTA1 131813Z 09006KT 29/22 A2998 RMK A01 T02930217  RH  064%=      5-min Rain = 0
KTA1 131814Z 10005KT 29/21 A2998 RMK A01 T02930214  RH  062%=      5-min Rain = 0
KTA1 131815Z 10005KT 29/21 A2998 RMK A01 T02930214  RH  063%=      5-min Rain = 0
KTA1 131816Z 09004KT 29/21 A2998 RMK A01 T02920212  RH  062%=      5-min Rain = 0
KTA1 131817Z 06004KT 29/21 A2998 RMK A01 T02910214  RH  063%=      5-min Rain = 0
KTA1 131818Z 07003KT 29/22 A2997 RMK A01 T02910218  RH  065%=      5-min Rain = 0
KTA1 131819Z 09004KT 29/21 A2997 RMK A01 T02920213  RH  062%=      5-min Rain = 0
KTA1 131820Z 11007KT 29/22 A2997 RMK A01 T02920218  RH  064%=      5-min Rain = 0
KTA1 131821Z 10006KT 29/22 A2997 RMK A01 T02940221  RH  065%=      5-min Rain = 0
KTA1 131822Z 11005KT 30/22 A2997 RMK A01 T02950221  RH  065%=      5-min Rain = 0
KTA1 131823Z 09005KT 30/22 A2997 RMK A01 T02960223  RH  065%=      5-min Rain = 0
KTA1 131824Z 07005KT 30/22 A2997 RMK A01 T02970217  RH  062%=      5-min Rain = 0
KTA1 131825Z 07005KT 30/22 A2997 RMK A01 T02960224  RH  065%=      5-min Rain = 0
KTA1 131826Z 10004KT 30/22 A2997 RMK A01 T02970219  RH  063%=      5-min Rain = 0
KTA1 131827Z 09006KT 30/22 A2997 RMK A01 T02970221  RH  064%=      5-min Rain = 0
KTA1 131828Z 10007KT 30/22 A2997 RMK A01 T02970218  RH  063%=      5-min Rain = 0
KTA1 131829Z 10006KT 30/22 A2997 RMK A01 T02950219  RH  063%=      5-min Rain = 0
KTA1 131830Z 11006KT 30/22 A2997 RMK A01 T02960221  RH  064%=      5-min Rain = 0
KTA1 131831Z 10004KT 30/22 A2997 RMK A01 T02960219  RH  063%=      5-min Rain = 0
KTA1 131832Z 08003KT 30/22 A2997 RMK A01 T02970217  RH  062%=      5-min Rain = 0
KTA1 131833Z 09005KT 30/22 A2997 RMK A01 T02970220  RH  063%=      5-min Rain = 0
KTA1 131834Z 08005KT 30/22 A2997 RMK A01 T02980219  RH  063%=      5-min Rain = 0
KTA1 131835Z 07005KT 30/22 A2997 RMK A01 T02980218  RH  062%=      5-min Rain = 0
KTA1 131836Z 07004KT 30/21 A2997 RMK A01 T02980214  RH  061%=      5-min Rain = 0
KTA1 131837Z 07003KT 30/22 A2997 RMK A01 T02970216  RH  062%=      5-min Rain = 0
KTA1 131838Z 09005KT 30/22 A2997 RMK A01 T02980219  RH  063%=      5-min Rain = 0
KTA1 131839Z 09008KT 30/22 A2997 RMK A01 T02990220  RH  063%=      5-min Rain = 0
KTA1 131840Z 09006KT 30/22 A2997 RMK A01 T02990218  RH  062%=      5-min Rain = 0
KTA1 131841Z 10004KT 30/22 A2997 RMK A01 T02990217  RH  061%=      5-min Rain = 0
KTA1 131842Z 12003KT 30/22 A2997 RMK A01 T02990216  RH  061%=      5-min Rain = 0
KTA1 131843Z 08006KT 30/22 A2997 RMK A01 T03000216  RH  061%=      5-min Rain = 0
KTA1 131844Z 09003KT 30/21 A2997 RMK A01 T02990213  RH  060%=      5-min Rain = 0
KTA1 131845Z 06003KT 30/22 A2997 RMK A01 T02990216  RH  061%=      5-min Rain = 0
KTA1 131846Z 08006KT 30/22 A2997 RMK A01 T02990223  RH  064%=      5-min Rain = 0
KTA1 131847Z 07006KT 30/22 A2997 RMK A01 T03000223  RH  063%=      5-min Rain = 0
KTA1 131848Z 06007KT 30/23 A2997 RMK A01 T03020231  RH  066%=      5-min Rain = 0
KTA1 131849Z 06006KT 30/23 A2997 RMK A01 T03030226  RH  063%=      5-min Rain = 0
KTA1 131850Z 06005KT 30/22 A2997 RMK A01 T03030218  RH  061%=      5-min Rain = 0
KTA1 131851Z 06005KT 30/22 A2997 RMK A01 T03010220  RH  062%=      5-min Rain = 0
KTA1 131852Z 06006KT 30/23 A2997 RMK A01 T03010229  RH  066%=      5-min Rain = 0
KTA1 131853Z 08007KT 30/23 A2997 RMK A01 T03030225  RH  063%=      5-min Rain = 0
KTA1 131854Z 06004KT 30/22 A2997 RMK A01 T03030217  RH  060%=      5-min Rain = 0
KTA1 131855Z 07005KT 30/22 A2997 RMK A01 T03020218  RH  061%=      5-min Rain = 0
KTA1 131856Z 06006KT 30/22 A2997 RMK A01 T03020221  RH  062%=      5-min Rain = 0
KTA1 131857Z 07005KT 30/22 A2996 RMK A01 T03020220  RH  062%=      5-min Rain = 0
KTA1 131858Z 07006KT 30/22 A2996 RMK A01 T03030222  RH  062%=      5-min Rain = 0
KTA1 131859Z 05006KT 30/23 A2996 RMK A01 T03040227  RH  063%=      5-min Rain = 0
KTA1 131900Z 08005KT 31/23 A2996 RMK A01 T03050227  RH  063%=      5-min Rain = 0
KTA1 131901Z 09006KT 31/22 A2996 RMK A01 T03050219  RH  060%=      5-min Rain = 0
KTA1 131902Z 06005KT 31/23 A2996 RMK A01 T03050228  RH  063%=      5-min Rain = 0
KTA1 131903Z 05007KT 31/23 A2996 RMK A01 T03060227  RH  063%=      5-min Rain = 0
KTA1 131904Z 05007KT 31/23 A2996 RMK A01 T03050225  RH  062%=      5-min Rain = 0
KTA1 131905Z 05005KT 30/22 A2996 RMK A01 T03030223  RH  062%=      5-min Rain = 0
KTA1 131906Z 06004KT 30/23 A2996 RMK A01 T03030229  RH  065%=      5-min Rain = 0
KTA1 131907Z 08007KT 31/23 A2996 RMK A01 T03050225  RH  062%=      5-min Rain = 0
KTA1 131908Z 08004KT 31/23 A2996 RMK A01 T03080228  RH  063%=      5-min Rain = 0
KTA1 131909Z 09004KT 31/22 A2996 RMK A01 T03090223  RH  060%=      5-min Rain = 0
KTA1 131910Z 09007KT 31/22 A2996 RMK A01 T03100223  RH  060%=      5-min Rain = 0
KTA1 131911Z 11006KT 31/22 A2996 RMK A01 T03100217  RH  058%=      5-min Rain = 0
KTA1 131912Z 09006KT 31/22 A2996 RMK A01 T03080219  RH  059%=      5-min Rain = 0
KTA1 131913Z 08007KT 31/23 A2996 RMK A01 T03070226  RH  062%=      5-min Rain = 0
KTA1 131914Z 08008KT 31/22 A2996 RMK A01 T03080223  RH  061%=      5-min Rain = 0
KTA1 131915Z 09006KT 31/22 A2996 RMK A01 T03080220  RH  060%=      5-min Rain = 0
KTA1 131916Z 08004KT 31/22 A2996 RMK A01 T03070221  RH  060%=      5-min Rain = 0
KTA1 131917Z 06005KT 31/23 A2996 RMK A01 T03070228  RH  063%=      5-min Rain = 0
KTA1 131918Z 06005KT 31/23 A2996 RMK A01 T03080225  RH  061%=      5-min Rain = 0
KTA1 131919Z 06007KT 31/22 A2996 RMK A01 T03080224  RH  061%=      5-min Rain = 0
KTA1 131920Z 08007KT 31/23 A2996 RMK A01 T03080226  RH  062%=      5-min Rain = 0
KTA1 131921Z 08004KT 31/22 A2996 RMK A01 T03090220  RH  059%=      5-min Rain = 0
KTA1 131922Z 07005KT 31/22 A2996 RMK A01 T03080220  RH  059%=      5-min Rain = 0
KTA1 131923Z 07006KT 31/22 A2996 RMK A01 T03080221  RH  060%=      5-min Rain = 0
KTA1 131924Z 07006KT 31/23 A2996 RMK A01 T03080225  RH  061%=      5-min Rain = 0
KTA1 131925Z 07006KT 31/23 A2996 RMK A01 T03090229  RH  062%=      5-min Rain = 0
KTA1 131926Z 09006KT 31/22 A2995 RMK A01 T03110222  RH  059%=      5-min Rain = 0
KTA1 131927Z 09006KT 31/22 A2995 RMK A01 T03110220  RH  058%=      5-min Rain = 0
KTA1 131928Z 08004KT 31/22 A2995 RMK A01 T03110218  RH  058%=      5-min Rain = 0
KTA1 131929Z 07005KT 31/22 A2995 RMK A01 T03110218  RH  058%=      5-min Rain = 0
KTA1 131930Z 07004KT 31/21 A2995 RMK A01 T03110213  RH  056%=      5-min Rain = 0
KTA1 131931Z 08004KT 31/22 A2995 RMK A01 T03110219  RH  058%=      5-min Rain = 0
KTA1 131932Z 07007KT 31/23 A2995 RMK A01 T03130225  RH  060%=      5-min Rain = 0
KTA1 131933Z 06006KT 31/23 A2995 RMK A01 T03130228  RH  061%=      5-min Rain = 0
KTA1 131934Z 06007KT 31/23 A2995 RMK A01 T03130227  RH  060%=      5-min Rain = 0
KTA1 131935Z 07008KT 31/23 A2995 RMK A01 T03120227  RH  060%=      5-min Rain = 0
KTA1 131936Z 08007KT 31/22 A2995 RMK A01 T03120215  RH  056%=      5-min Rain = 0
KTA1 131937Z 06006KT 31/23 A2995 RMK A01 T03120226  RH  060%=      5-min Rain = 0
KTA1 131938Z 06005KT 31/22 A2995 RMK A01 T03120220  RH  058%=      5-min Rain = 0
KTA1 131939Z 08006KT 31/22 A2995 RMK A01 T03100220  RH  059%=      5-min Rain = 0
KTA1 131940Z 07006KT 31/22 A2995 RMK A01 T03100220  RH  059%=      5-min Rain = 0
KTA1 131941Z 07006KT 31/22 A2995 RMK A01 T03110221  RH  059%=      5-min Rain = 0
KTA1 131942Z 07007KT 31/22 A2995 RMK A01 T03120220  RH  058%=      5-min Rain = 0
KTA1 131943Z 08008KT 31/22 A2995 RMK A01 T03130221  RH  058%=      5-min Rain = 0
KTA1 131944Z 08007KT 31/22 A2995 RMK A01 T03130220  RH  058%=      5-min Rain = 0
KTA1 131945Z 08006KT 32/22 A2995 RMK A01 T03150219  RH  057%=      5-min Rain = 0
KTA1 131946Z 07005KT 32/22 A2994 RMK A01 T03150218  RH  056%=      5-min Rain = 0
KTA1 131947Z 07008KT 32/22 A2994 RMK A01 T03150221  RH  057%=      5-min Rain = 0
KTA1 131948Z 09008KT 32/23 A2994 RMK A01 T03150226  RH  059%=      5-min Rain = 0
KTA1 131949Z 10006KT 32/23 A2994 RMK A01 T03160227  RH  059%=      5-min Rain = 0
KTA1 131950Z 10008KT 32/23 A2994 RMK A01 T03180225  RH  058%=      5-min Rain = 0
KTA1 131951Z 08006KT 32/22 A2994 RMK A01 T03190217  RH  055%=      5-min Rain = 0
KTA1 131952Z 07006KT 32/22 A2994 RMK A01 T03170220  RH  057%=      5-min Rain = 0
KTA1 131953Z 07007KT 32/22 A2994 RMK A01 T03180222  RH  057%=      5-min Rain = 0
KTA1 131954Z 09006KT 32/22 A2994 RMK A01 T03190218  RH  055%=      5-min Rain = 0
KTA1 131955Z 09005KT 32/22 A2994 RMK A01 T03180223  RH  057%=      5-min Rain = 0
KTA1 131956Z 09006KT 32/22 A2994 RMK A01 T03190218  RH  055%=      5-min Rain = 0
KTA1 131957Z 09005KT 32/22 A2994 RMK A01 T03190219  RH  056%=      5-min Rain = 0
KTA1 131958Z 09005KT 32/22 A2994 RMK A01 T03180216  RH  055%=      5-min Rain = 0
KTA1 131959Z 10007KT 32/22 A2994 RMK A01 T03190219  RH  056%=      5-min Rain = 0
KTA1 132000Z 12007KT 32/22 A2994 RMK A01 T03200223  RH  056%=      5-min Rain = 0
KTA1 132001Z 10006KT 32/22 A2994 RMK A01 T03220215  RH  053%=      5-min Rain = 0
KTA1 132002Z 08005KT 32/22 A2993 RMK A01 T03210215  RH  054%=      5-min Rain = 0
KTA1 132003Z 08006KT 32/22 A2993 RMK A01 T03200215  RH  054%=      5-min Rain = 0
KTA1 132004Z 10005KT 32/22 A2993 RMK A01 T03190219  RH  055%=      5-min Rain = 0
KTA1 132005Z 11008KT 32/22 A2993 RMK A01 T03200219  RH  055%=      5-min Rain = 0
KTA1 132006Z 11006KT 32/22 A2993 RMK A01 T03200222  RH  056%=      5-min Rain = 0
KTA1 132007Z 11007KT 32/22 A2993 RMK A01 T03220219  RH  055%=      5-min Rain = 0
KTA1 132008Z 10005KT 32/22 A2993 RMK A01 T03220215  RH  053%=      5-min Rain = 0
KTA1 132009Z 09007KT 32/22 A2993 RMK A01 T03200218  RH  055%=      5-min Rain = 0
KTA1 132010Z 09006KT 32/22 A2993 RMK A01 T03200218  RH  055%=      5-min Rain = 0
KTA1 132011Z 10005KT 32/22 A2993 RMK A01 T03200216  RH  054%=      5-min Rain = 0
KTA1 132012Z 08006KT 32/22 A2993 RMK A01 T03200218  RH  055%=      5-min Rain = 0
KTA1 132013Z 09005KT 32/22 A2993 RMK A01 T03210223  RH  056%=      5-min Rain = 0
KTA1 132014Z 09006KT 32/22 A2993 RMK A01 T03240217  RH  053%=      5-min Rain = 0
KTA1 132015Z 09006KT 32/21 A2993 RMK A01 T03230214  RH  052%=      5-min Rain = 0
KTA1 132016Z 09005KT 32/21 A2993 RMK A01 T03220214  RH  053%=      5-min Rain = 0
KTA1 132017Z 09004KT 32/22 A2993 RMK A01 T03220216  RH  054%=      5-min Rain = 0
KTA1 132018Z 08005KT 32/22 A2993 RMK A01 T03220217  RH  054%=      5-min Rain = 0
KTA1 132019Z 08004KT 32/22 A2993 RMK A01 T03230218  RH  054%=      5-min Rain = 0
KTA1 132020Z 07005KT 33/22 A2993 RMK A01 T03250220  RH  054%=      5-min Rain = 0
KTA1 132021Z 07008KT 33/22 A2993 RMK A01 T03260220  RH  054%=      5-min Rain = 0
KTA1 132022Z 07008KT 33/22 A2993 RMK A01 T03250217  RH  053%=      5-min Rain = 0
KTA1 132023Z 08007KT 32/22 A2993 RMK A01 T03240223  RH  055%=      5-min Rain = 0
KTA1 132024Z 09007KT 33/22 A2993 RMK A01 T03250220  RH  054%=      5-min Rain = 0
KTA1 132025Z 09006KT 33/22 A2993 RMK A01 T03250216  RH  053%=      5-min Rain = 0
KTA1 132026Z 08005KT 32/21 A2993 RMK A01 T03240214  RH  052%=      5-min Rain = 0
KTA1 132027Z 08005KT 32/22 A2992 RMK A01 T03240217  RH  053%=      5-min Rain = 0
KTA1 132028Z 09004KT 32/21 A2992 RMK A01 T03240212  RH  051%=      5-min Rain = 0
KTA1 132029Z 06005KT 33/21 A2992 RMK A01 T03250211  RH  051%=      5-min Rain = 0
KTA1 132030Z 04004KT 32/21 A2992 RMK A01 T03240214  RH  052%=      5-min Rain = 0
KTA1 132031Z 09005KT 33/22 A2992 RMK A01 T03250215  RH  053%=      5-min Rain = 0
KTA1 132032Z 11005KT 33/21 A2992 RMK A01 T03260214  RH  052%=      5-min Rain = 0
KTA1 132033Z 09008KT 33/22 A2992 RMK A01 T03260218  RH  053%=      5-min Rain = 0
KTA1 132034Z 09008KT 33/22 A2992 RMK A01 T03280218  RH  053%=      5-min Rain = 0
KTA1 132035Z 08006KT 33/21 A2992 RMK A01 T03270213  RH  051%=      5-min Rain = 0
KTA1 132036Z 10008KT 33/22 A2992 RMK A01 T03260217  RH  053%=      5-min Rain = 0
KTA1 132037Z 06007KT 33/22 A2992 RMK A01 T03270219  RH  053%=      5-min Rain = 0
KTA1 132038Z 06007KT 33/22 A2992 RMK A01 T03280220  RH  053%=      5-min Rain = 0
KTA1 132039Z 07007KT 33/21 A2992 RMK A01 T03270213  RH  051%=      5-min Rain = 0
KTA1 132040Z 07008KT 33/22 A2992 RMK A01 T03270220  RH  054%=      5-min Rain = 0
KTA1 132041Z 07008KT 33/21 A2992 RMK A01 T03280214  RH  051%=      5-min Rain = 0
KTA1 132042Z 06007KT 33/21 A2992 RMK A01 T03270212  RH  051%=      5-min Rain = 0
KTA1 132043Z 06007KT 33/22 A2992 RMK A01 T03260218  RH  053%=      5-min Rain = 0
KTA1 132044Z 07007KT 33/22 A2991 RMK A01 T03270217  RH  052%=      5-min Rain = 0
KTA1 132045Z 07007KT 33/22 A2991 RMK A01 T03270218  RH  053%=      5-min Rain = 0
KTA1 132046Z 07008KT 33/22 A2991 RMK A01 T03270217  RH  053%=      5-min Rain = 0
KTA1 132047Z 07007KT 33/22 A2991 RMK A01 T03270217  RH  052%=      5-min Rain = 0
KTA1 132048Z 07006KT 33/22 A2991 RMK A01 T03270215  RH  052%=      5-min Rain = 0
KTA1 132049Z 06007KT 33/22 A2991 RMK A01 T03260217  RH  053%=      5-min Rain = 0
KTA1 132050Z 04005KT 33/21 A2991 RMK A01 T03270211  RH  050%=      5-min Rain = 0
KTA1 132051Z 07004KT 33/21 A2991 RMK A01 T03260212  RH  051%=      5-min Rain = 0
KTA1 132052Z 09008KT 33/21 A2991 RMK A01 T03260214  RH  052%=      5-min Rain = 0
KTA1 132053Z 09008KT 33/21 A2991 RMK A01 T03280211  RH  050%=      5-min Rain = 0
KTA1 132054Z 11005KT 33/21 A2991 RMK A01 T03280211  RH  050%=      5-min Rain = 0
KTA1 132055Z 10005KT 33/21 A2991 RMK A01 T03290210  RH  050%=      5-min Rain = 0
KTA1 132056Z 11003KT 33/21 A2991 RMK A01 T03300210  RH  049%=      5-min Rain = 0
KTA1 132057Z 10006KT 33/21 A2991 RMK A01 T03310209  RH  049%=      5-min Rain = 0
KTA1 132058Z 09005KT 33/21 A2991 RMK A01 T03300212  RH  050%=      5-min Rain = 0
KTA1 132059Z 10005KT 33/21 A2991 RMK A01 T03300212  RH  050%=      5-min Rain = 0
KTA1 132100Z 08006KT 33/22 A2991 RMK A01 T03320217  RH  051%=      5-min Rain = 0
KTA1 132101Z 09008KT 33/21 A2991 RMK A01 T03330214  RH  050%=      5-min Rain = 0
KTA1 132102Z 09006KT 33/21 A2991 RMK A01 T03330207  RH  048%=      5-min Rain = 0
KTA1 132103Z 07004KT 33/21 A299 RMK A01 T03310206  RH  048%=      5-min Rain = 0
KTA1 132104Z 08008KT 33/21 A299 RMK A01 T03300214  RH  050%=      5-min Rain = 0
KTA1 132105Z 08009KT 33/22 A299 RMK A01 T03320216  RH  051%=      5-min Rain = 0
KTA1 132106Z 08006KT 33/21 A299 RMK A01 T03340212  RH  049%=      5-min Rain = 0
KTA1 132107Z 08007KT 33/21 A299 RMK A01 T03340212  RH  049%=      5-min Rain = 0
KTA1 132108Z 07008KT 33/21 A299 RMK A01 T03330212  RH  049%=      5-min Rain = 0
KTA1 132109Z 08007KT 33/22 A299 RMK A01 T03320216  RH  050%=      5-min Rain = 0
KTA1 132110Z 09007KT 33/21 A299 RMK A01 T03330209  RH  048%=      5-min Rain = 0
KTA1 132111Z 09005KT 33/22 A299 RMK A01 T03330215  RH  050%=      5-min Rain = 0
KTA1 132112Z 06006KT 33/21 A299 RMK A01 T03340212  RH  049%=      5-min Rain = 0
KTA1 132113Z 06007KT 33/21 A299 RMK A01 T03340211  RH  049%=      5-min Rain = 0
KTA1 132114Z 07007KT 33/21 A299 RMK A01 T03330212  RH  049%=      5-min Rain = 0
KTA1 132115Z 07005KT 33/21 A299 RMK A01 T03330207  RH  048%=      5-min Rain = 0
KTA1 132116Z 05008KT 33/21 A299 RMK A01 T03320207  RH  048%=      5-min Rain = 0
KTA1 132117Z 08007KT 33/21 A299 RMK A01 T03320211  RH  049%=      5-min Rain = 0
KTA1 132118Z 09008KT 33/21 A299 RMK A01 T03330212  RH  049%=      5-min Rain = 0
KTA1 132119Z 08007KT 33/21 A299 RMK A01 T03340205  RH  047%=      5-min Rain = 0
KTA1 132120Z 06005KT 33/21 A299 RMK A01 T03340206  RH  047%=      5-min Rain = 0
KTA1 132121Z 08007KT 33/21 A299 RMK A01 T03330210  RH  048%=      5-min Rain = 0
KTA1 132122Z 09009KT 33/21 A299 RMK A01 T03330211  RH  049%=      5-min Rain = 0
KTA1 132123Z 08007KT 33/21 A299 RMK A01 T03340208  RH  048%=      5-min Rain = 0
KTA1 132124Z 09007KT 33/21 A2989 RMK A01 T03330209  RH  048%=      5-min Rain = 0
KTA1 132125Z 10006KT 33/21 A2989 RMK A01 T03340209  RH  048%=      5-min Rain = 0
KTA1 132126Z 09007KT 34/21 A2989 RMK A01 T03350207  RH  047%=      5-min Rain = 0
KTA1 132127Z 08007KT 34/21 A2989 RMK A01 T03350208  RH  048%=      5-min Rain = 0
KTA1 132128Z 09007KT 34/20 A2989 RMK A01 T03360204  RH  046%=      5-min Rain = 0
KTA1 132129Z 09005KT 34/20 A2989 RMK A01 T03360202  RH  046%=      5-min Rain = 0
KTA1 132130Z 10006KT 34/20 A2989 RMK A01 T03350199  RH  045%=      5-min Rain = 0
KTA1 132131Z 09006KT 34/21 A2989 RMK A01 T03350208  RH  048%=      5-min Rain = 0
KTA1 132132Z 09005KT 34/21 A2989 RMK A01 T03360207  RH  047%=      5-min Rain = 0
KTA1 132133Z 08005KT 34/20 A2989 RMK A01 T03370201  RH  045%=      5-min Rain = 0
KTA1 132134Z 07005KT 34/21 A2989 RMK A01 T03360205  RH  046%=      5-min Rain = 0
KTA1 132135Z 08006KT 34/21 A2989 RMK A01 T03360207  RH  047%=      5-min Rain = 0
KTA1 132136Z 08006KT 34/21 A2989 RMK A01 T03370207  RH  047%=      5-min Rain = 0
KTA1 132137Z 06008KT 34/21 A2989 RMK A01 T03380206  RH  046%=      5-min Rain = 0
KTA1 132138Z 06007KT 34/21 A2989 RMK A01 T03370208  RH  047%=      5-min Rain = 0
KTA1 132139Z 05006KT 34/21 A2989 RMK A01 T03370207  RH  047%=      5-min Rain = 0
KTA1 132140Z 07007KT 34/21 A2989 RMK A01 T03360209  RH  047%=      5-min Rain = 0
KTA1 132141Z 08005KT 34/20 A2989 RMK A01 T03360201  RH  045%=      5-min Rain = 0
KTA1 132142Z 06007KT 34/21 A2989 RMK A01 T03360208  RH  047%=      5-min Rain = 0
KTA1 132143Z 05006KT 34/21 A2989 RMK A01 T03370209  RH  047%=      5-min Rain = 0
KTA1 132144Z 06007KT 34/20 A2989 RMK A01 T03370203  RH  045%=      5-min Rain = 0
KTA1 132145Z 06008KT 34/20 A2988 RMK A01 T03350202  RH  046%=      5-min Rain = 0
KTA1 132146Z 07006KT 33/20 A2988 RMK A01 T03340204  RH  047%=      5-min Rain = 0
KTA1 132147Z 07005KT 34/21 A2988 RMK A01 T03350206  RH  047%=      5-min Rain = 0
KTA1 132148Z 07005KT 34/21 A2988 RMK A01 T03360207  RH  047%=      5-min Rain = 0
KTA1 132149Z 06006KT 34/20 A2988 RMK A01 T03370199  RH  045%=      5-min Rain = 0
KTA1 132150Z 07008KT 34/20 A2988 RMK A01 T03370201  RH  045%=      5-min Rain = 0
KTA1 132151Z 08007KT 34/20 A2988 RMK A01 T03370197  RH  044%=      5-min Rain = 0
KTA1 132152Z 08006KT 34/20 A2988 RMK A01 T03370196  RH  044%=      5-min Rain = 0
KTA1 132153Z 08005KT 34/20 A2988 RMK A01 T03370198  RH  044%=      5-min Rain = 0
KTA1 132154Z 09006KT 34/20 A2988 RMK A01 T03380198  RH  044%=      5-min Rain = 0
KTA1 132155Z 09007KT 34/20 A2988 RMK A01 T03370197  RH  044%=      5-min Rain = 0
KTA1 132156Z 09005KT 34/20 A2988 RMK A01 T03370198  RH  044%=      5-min Rain = 0
KTA1 132157Z 09005KT 34/20 A2988 RMK A01 T03370198  RH  044%=      5-min Rain = 0
KTA1 132158Z 07006KT 34/20 A2988 RMK A01 T03380199  RH  044%=      5-min Rain = 0
KTA1 132159Z 06006KT 34/20 A2988 RMK A01 T03390200  RH  044%=      5-min Rain = 0
KTA1 132200Z 06004KT 34/19 A2988 RMK A01 T03380194  RH  043%=      5-min Rain = 0
KTA1 132201Z 07005KT 34/20 A2988 RMK A01 T03370198  RH  044%=      5-min Rain = 0
KTA1 132202Z 08004KT 34/20 A2988 RMK A01 T03370196  RH  043%=      5-min Rain = 0
KTA1 132203Z 08005KT 34/20 A2988 RMK A01 T03380196  RH  043%=      5-min Rain = 0
KTA1 132204Z 04005KT 34/20 A2988 RMK A01 T03390202  RH  045%=      5-min Rain = 0
KTA1 132205Z 04005KT 34/20 A2988 RMK A01 T03390203  RH  045%=      5-min Rain = 0
KTA1 132206Z 05004KT 34/20 A2988 RMK A01 T03390201  RH  044%=      5-min Rain = 0
KTA1 132207Z 09005KT 34/20 A2988 RMK A01 T03390200  RH  044%=      5-min Rain = 0
KTA1 132208Z 09008KT 34/20 A2988 RMK A01 T03400201  RH  044%=      5-min Rain = 0
KTA1 132209Z 10007KT 34/20 A2987 RMK A01 T03400196  RH  043%=      5-min Rain = 0
KTA1 132210Z 11008KT 34/20 A2987 RMK A01 T03400198  RH  043%=      5-min Rain = 0
KTA1 132211Z 11007KT 34/20 A2987 RMK A01 T03390199  RH  044%=      5-min Rain = 0
KTA1 132212Z 09005KT 34/20 A2987 RMK A01 T03390198  RH  043%=      5-min Rain = 0
KTA1 132213Z 06005KT 34/20 A2987 RMK A01 T03400200  RH  044%=      5-min Rain = 0
KTA1 132214Z 05005KT 34/20 A2987 RMK A01 T03400199  RH  044%=      5-min Rain = 0
KTA1 132215Z 07003KT 34/20 A2987 RMK A01 T03390201  RH  044%=      5-min Rain = 0
KTA1 132216Z 10006KT 34/20 A2987 RMK A01 T03400199  RH  044%=      5-min Rain = 0
KTA1 132217Z 10007KT 34/20 A2987 RMK A01 T03400198  RH  043%=      5-min Rain = 0
KTA1 132218Z 11006KT 34/20 A2987 RMK A01 T03400195  RH  043%=      5-min Rain = 0
KTA1 132219Z 11006KT 34/20 A2987 RMK A01 T03390197  RH  043%=      5-min Rain = 0
KTA1 132220Z 11006KT 34/20 A2987 RMK A01 T03400201  RH  044%=      5-min Rain = 0
KTA1 132221Z 11006KT 34/20 A2987 RMK A01 T03410197  RH  043%=      5-min Rain = 0
KTA1 132222Z 11004KT 34/19 A2987 RMK A01 T03410192  RH  042%=      5-min Rain = 0
KTA1 132223Z 10003KT 34/19 A2987 RMK A01 T03410194  RH  042%=      5-min Rain = 0
KTA1 132224Z 07005KT 34/20 A2987 RMK A01 T03410200  RH  044%=      5-min Rain = 0
KTA1 132225Z 08004KT 34/20 A2987 RMK A01 T03410197  RH  043%=      5-min Rain = 0
KTA1 132226Z 08006KT 34/20 A2987 RMK A01 T03420200  RH  044%=      5-min Rain = 0
KTA1 132227Z 09007KT 34/20 A2987 RMK A01 T03420202  RH  044%=      5-min Rain = 0
KTA1 132228Z 10008KT 34/20 A2987 RMK A01 T03430197  RH  042%=      5-min Rain = 0
KTA1 132229Z 10009KT 34/20 A2987 RMK A01 T03410195  RH  042%=      5-min Rain = 0
KTA1 132230Z 11008KT 34/20 A2987 RMK A01 T03400195  RH  043%=      5-min Rain = 0
KTA1 132231Z 11005KT 34/19 A2987 RMK A01 T03390192  RH  042%=      5-min Rain = 0
KTA1 132232Z 10006KT 34/20 A2987 RMK A01 T03390195  RH  043%=      5-min Rain = 0
KTA1 132233Z 09007KT 34/20 A2987 RMK A01 T03390199  RH  044%=      5-min Rain = 0
KTA1 132234Z 11008KT 34/20 A2987 RMK A01 T03400198  RH  043%=      5-min Rain = 0
KTA1 132235Z 11007KT 34/20 A2987 RMK A01 T03400197  RH  043%=      5-min Rain = 0
KTA1 132236Z 09006KT 34/20 A2986 RMK A01 T03400196  RH  043%=      5-min Rain = 0
KTA1 132237Z 10004KT 34/19 A2986 RMK A01 T03400192  RH  042%=      5-min Rain = 0
KTA1 132238Z 10007KT 34/20 A2986 RMK A01 T03400197  RH  043%=      5-min Rain = 0
KTA1 132239Z 11007KT 34/20 A2986 RMK A01 T03410196  RH  043%=      5-min Rain = 0
KTA1 132240Z 10005KT 34/19 A2986 RMK A01 T03400193  RH  042%=      5-min Rain = 0
KTA1 132241Z 11003KT 34/19 A2986 RMK A01 T03400193  RH  042%=      5-min Rain = 0
KTA1 132242Z 10007KT 34/19 A2986 RMK A01 T03410190  RH  041%=      5-min Rain = 0
KTA1 132243Z 08008KT 34/19 A2986 RMK A01 T03410191  RH  041%=      5-min Rain = 0
KTA1 132244Z 09006KT 34/19 A2987 RMK A01 T03410191  RH  041%=      5-min Rain = 0
KTA1 132245Z 07005KT 34/19 A2987 RMK A01 T03410191  RH  041%=      5-min Rain = 0
KTA1 132246Z 09004KT 34/19 A2987 RMK A01 T03410190  RH  041%=      5-min Rain = 0
KTA1 132247Z 10006KT 34/20 A2987 RMK A01 T03410196  RH  042%=      5-min Rain = 0
KTA1 132248Z 10007KT 34/19 A2987 RMK A01 T03420194  RH  042%=      5-min Rain = 0
KTA1 132249Z 10006KT 34/19 A2987 RMK A01 T03410194  RH  042%=      5-min Rain = 0
KTA1 132250Z 09006KT 34/19 A2987 RMK A01 T03420192  RH  041%=      5-min Rain = 0
KTA1 132251Z 10006KT 34/19 A2987 RMK A01 T03410194  RH  042%=      5-min Rain = 0
KTA1 132252Z 11006KT 34/20 A2987 RMK A01 T03420198  RH  043%=      5-min Rain = 0
KTA1 132253Z 10006KT 34/19 A2987 RMK A01 T03430193  RH  041%=      5-min Rain = 0
KTA1 132254Z 10007KT 34/20 A2987 RMK A01 T03430196  RH  042%=      5-min Rain = 0
KTA1 132255Z 10006KT 34/20 A2987 RMK A01 T03420197  RH  043%=      5-min Rain = 0
KTA1 132256Z 09005KT 34/19 A2987 RMK A01 T03420193  RH  042%=      5-min Rain = 0
KTA1 132257Z 09006KT 34/19 A2987 RMK A01 T03420193  RH  042%=      5-min Rain = 0
KTA1 132258Z 10008KT 34/19 A2987 RMK A01 T03420193  RH  042%=      5-min Rain = 0
KTA1 132259Z 13007KT 34/19 A2988 RMK A01 T03420191  RH  041%=      5-min Rain = 0
KTA1 132300Z 17011G18KT 34/20 A2989 RMK A01 T03420195  RH  042%=      5-min Rain = 0
KTA1 132301Z 19018G25KT 34/20 A299 RMK A01 T03420197  RH  043%=      5-min Rain = 0
KTA1 132302Z 18020G26KT 32/19 A299 RMK A01 T03230192  RH  046%=      5-min Rain = 0
KTA1 132303Z 18026G31KT 30/19 A299 RMK A01 T03030189  RH  050%=      5-min Rain = 0
KTA1 132304Z 17023G35KT 29/19 A299 RMK A01 T02920190  RH  054%=      5-min Rain = 0
KTA1 132305Z 18027G33KT 29/19 A299 RMK A01 T02860188  RH  055%=      5-min Rain = 0
KTA1 132306Z 18027G32KT 28/19 A299 RMK A01 T02820188  RH  057%=      5-min Rain = 0
KTA1 132307Z 18023G33KT 28/19 A299 RMK A01 T02790189  RH  058%=      5-min Rain = 0
KTA1 132308Z 18030G36KT 28/19 A299 RMK A01 T02780188  RH  058%=      5-min Rain = 0
KTA1 132309Z 18025G30KT 28/19 A299 RMK A01 T02780189  RH  058%=      5-min Rain = 0
KTA1 132310Z 17023G31KT 28/19 A299 RMK A01 T02780189  RH  058%=      5-min Rain = 0
KTA1 132311Z 18022G29KT 28/19 A299 RMK A01 T02780188  RH  058%=      5-min Rain = 0
KTA1 132312Z 18023G28KT 28/19 A299 RMK A01 T02790189  RH  058%=      5-min Rain = 0
KTA1 132313Z 18020G25KT 28/19 A299 RMK A01 T02790189  RH  058%=      5-min Rain = 0
KTA1 132314Z 19023G29KT 28/19 A299 RMK A01 T02790190  RH  058%=      5-min Rain = 0
KTA1 132315Z 18019KT 28/19 A299 RMK A01 T02790190  RH  058%=      5-min Rain = 0
KTA1 132316Z 17022G28KT 28/19 A2991 RMK A01 T02790190  RH  058%=      5-min Rain = 0
KTA1 132317Z 18026G31KT 28/19 A2991 RMK A01 T02780189  RH  058%=      5-min Rain = 0
KTA1 132318Z 18024G29KT 28/19 A2991 RMK A01 T02770190  RH  059%=      5-min Rain = 0
KTA1 132319Z 17021G27KT 28/19 A2991 RMK A01 T02750190  RH  060%=      5-min Rain = 0
KTA1 132320Z 18021KT 28/19 A299 RMK A01 T02750190  RH  060%=      5-min Rain = 0
KTA1 132321Z 17023G29KT 27/19 A299 RMK A01 T02740190  RH  060%=      5-min Rain = 0
KTA1 132322Z 17023KT 27/19 A299 RMK A01 T02730189  RH  060%=      5-min Rain = 0
KTA1 132323Z 18020KT 27/19 A299 RMK A01 T02730190  RH  061%=      5-min Rain = 0
KTA1 132324Z 17021G26KT 27/19 A299 RMK A01 T02730188  RH  060%=      5-min Rain = 0
KTA1 132325Z 17023G33KT 27/19 A299 RMK A01 T02730189  RH  060%=      5-min Rain = 0
KTA1 132326Z 17027KT 27/19 A299 RMK A01 T02720186  RH  059%=      5-min Rain = 0
KTA1 132327Z 17023KT 27/19 A299 RMK A01 T02700185  RH  059%=      5-min Rain = 0
KTA1 132328Z 17021G26KT 27/18 A299 RMK A01 T02690184  RH  059%=      5-min Rain = 0
KTA1 132329Z 16019G25KT 27/18 A299 RMK A01 T02680184  RH  060%=      5-min Rain = 0
KTA1 132330Z 17021KT 27/18 A299 RMK A01 T02670184  RH  060%=      5-min Rain = 0
KTA1 132331Z 17021KT 27/18 A299 RMK A01 T02660184  RH  061%=      5-min Rain = 0
KTA1 132332Z 17019G24KT 26/18 A299 RMK A01 T02640184  RH  061%=      5-min Rain = 0
KTA1 132333Z 18018KT 26/19 A2989 RMK A01 T02640185  RH  062%=      5-min Rain = 0
KTA1 132334Z 18018G24KT 26/19 A2989 RMK A01 T02630185  RH  062%=      5-min Rain = 0
KTA1 132335Z 18018G25KT 26/19 A2989 RMK A01 T02620185  RH  062%=      5-min Rain = 0
KTA1 132336Z 18020G25KT 26/19 A2989 RMK A01 T02620185  RH  062%=      5-min Rain = 0
KTA1 132337Z 18017KT 26/18 A2989 RMK A01 T02620184  RH  062%=      5-min Rain = 0
KTA1 132338Z 19016G21KT 26/18 A2989 RMK A01 T02610183  RH  062%=      5-min Rain = 0
KTA1 132339Z 19015KT 26/18 A2989 RMK A01 T02620184  RH  062%=      5-min Rain = 0
KTA1 132340Z 19016KT 26/18 A2989 RMK A01 T02630183  RH  062%=      5-min Rain = 0
KTA1 132341Z 19019G26KT 26/18 A2989 RMK A01 T02630182  RH  061%=      5-min Rain = 0
KTA1 132342Z 18019KT 26/18 A2989 RMK A01 T02640181  RH  060%=      5-min Rain = 0
KTA1 132343Z 18017G24KT 26/18 A2989 RMK A01 T02640181  RH  060%=      5-min Rain = 0
KTA1 132344Z 18017KT 27/18 A2988 RMK A01 T02650181  RH  060%=      5-min Rain = 0
KTA1 132345Z 18018G23KT 27/18 A2988 RMK A01 T02650180  RH  060%=      5-min Rain = 0
KTA1 132346Z 18016G21KT 27/18 A2988 RMK A01 T02660181  RH  060%=      5-min Rain = 0
KTA1 132347Z 17019KT 27/18 A2988 RMK A01 T02660180  RH  059%=      5-min Rain = 0
KTA1 132348Z 17017KT 27/18 A2988 RMK A01 T02660180  RH  059%=      5-min Rain = 0
KTA1 132349Z 18017KT 27/18 A2988 RMK A01 T02660180  RH  059%=      5-min Rain = 0
KTA1 132350Z 18013G18KT 27/18 A2988 RMK A01 T02670179  RH  059%=      5-min Rain = 0
KTA1 132351Z 18015G20KT 27/18 A2988 RMK A01 T02670179  RH  058%=      5-min Rain = 0
KTA1 132352Z 18016G22KT 27/18 A2988 RMK A01 T02680177  RH  057%=      5-min Rain = 0
KTA1 132353Z 18016KT 27/18 A2987 RMK A01 T02690177  RH  057%=      5-min Rain = 0
KTA1 132354Z 18014KT 27/18 A2987 RMK A01 T02690177  RH  057%=      5-min Rain = 0
KTA1 132355Z 18015KT 27/18 A2987 RMK A01 T02700178  RH  057%=      5-min Rain = 0
KTA1 132356Z 18018KT 27/18 A2987 RMK A01 T02710177  RH  057%=      5-min Rain = 0
KTA1 132357Z 18016KT 27/18 A2987 RMK A01 T02720177  RH  056%=      5-min Rain = 0
KTA1 132358Z 18014G19KT 27/18 A2988 RMK A01 T02710177  RH  056%=      5-min Rain = 0
KTA1 132359Z 18012KT 27/18 A2988 RMK A01 T02710179  RH  057%=      5-min Rain = 0
KTA1 140000Z 18012KT 27/18 A2988 RMK A01 T02720179  RH  057%=      5-min Rain = 0
KTA1 140001Z 18013KT 27/18 A2988 RMK A01 T02720179  RH  057%=      5-min Rain = 0
KTA1 140002Z 18013KT 27/18 A2988 RMK A01 T02730179  RH  056%=      5-min Rain = 0
KTA1 140003Z 18011KT 27/18 A2988 RMK A01 T02720180  RH  057%=      5-min Rain = 0
KTA1 140004Z 19011KT 27/18 A2988 RMK A01 T02730181  RH  057%=      5-min Rain = 0
KTA1 140005Z 19012KT 27/18 A2988 RMK A01 T02730181  RH  057%=      5-min Rain = 0
KTA1 140006Z 19012KT 27/18 A2988 RMK A01 T02730181  RH  057%=      5-min Rain = 0
KTA1 140007Z 19012KT 27/18 A2988 RMK A01 T02720182  RH  058%=      5-min Rain = 0
KTA1 140008Z 20014KT 27/18 A2988 RMK A01 T02720183  RH  058%=      5-min Rain = 0
KTA1 140009Z 19013KT 27/18 A2988 RMK A01 T02720183  RH  058%=      5-min Rain = 0
KTA1 140010Z 19013KT 27/18 A2988 RMK A01 T02720184  RH  059%=      5-min Rain = 0
KTA1 140011Z 19011KT 27/18 A2988 RMK A01 T02710183  RH  059%=      5-min Rain = 0
KTA1 140012Z 18012KT 27/18 A2988 RMK A01 T02710183  RH  059%=      5-min Rain = 0
KTA1 140013Z 19012KT 27/18 A2988 RMK A01 T02710183  RH  058%=      5-min Rain = 0
KTA1 140014Z 19013KT 27/18 A2988 RMK A01 T02720183  RH  058%=      5-min Rain = 0
KTA1 140015Z 19011KT 27/18 A2988 RMK A01 T02720183  RH  058%=      5-min Rain = 0
KTA1 140016Z 19011KT 27/19 A2988 RMK A01 T02720185  RH  059%=      5-min Rain = 0
KTA1 140017Z 18011KT 27/19 A2988 RMK A01 T02720185  RH  059%=      5-min Rain = 0
KTA1 140018Z 19011KT 27/18 A2989 RMK A01 T02730184  RH  058%=      5-min Rain = 0
KTA1 140019Z 18009KT 27/19 A2989 RMK A01 T02730185  RH  058%=      5-min Rain = 0
KTA1 140020Z 18012KT 27/18 A2989 RMK A01 T02740183  RH  058%=      5-min Rain = 0
KTA1 140021Z 17011KT 27/18 A2989 RMK A01 T02740182  RH  057%=      5-min Rain = 0
KTA1 140022Z 16009KT 28/19 A2989 RMK A01 T02750185  RH  058%=      5-min Rain = 0
KTA1 140023Z 17010KT 27/19 A2989 RMK A01 T02740185  RH  058%=      5-min Rain = 0
KTA1 140024Z 16008KT 27/19 A2989 RMK A01 T02740185  RH  058%=      5-min Rain = 0
KTA1 140025Z 16010KT 28/19 A2989 RMK A01 T02750186  RH  059%=      5-min Rain = 0
KTA1 140026Z 17010KT 27/19 A2989 RMK A01 T02740185  RH  058%=      5-min Rain = 0
KTA1 140027Z 17007KT 27/18 A2989 RMK A01 T02740184  RH  058%=      5-min Rain = 0
KTA1 140028Z 17007KT 27/19 A2989 RMK A01 T02740185  RH  059%=      5-min Rain = 0
KTA1 140029Z 17007KT 27/19 A299 RMK A01 T02740185  RH  058%=      5-min Rain = 0
KTA1 140030Z 18008KT 27/19 A299 RMK A01 T02740185  RH  058%=      5-min Rain = 0
KTA1 140031Z 18008KT 27/18 A299 RMK A01 T02740184  RH  058%=      5-min Rain = 0
KTA1 140032Z 19007KT 27/18 A299 RMK A01 T02740184  RH  058%=      5-min Rain = 0
KTA1 140033Z 19007KT 27/18 A299 RMK A01 T02740184  RH  058%=      5-min Rain = 0
KTA1 140034Z 19007KT 27/19 A299 RMK A01 T02740185  RH  058%=      5-min Rain = 0
KTA1 140035Z 19008KT 27/18 A299 RMK A01 T02740184  RH  058%=      5-min Rain = 0
KTA1 140036Z 17006KT 27/19 A299 RMK A01 T02740186  RH  059%=      5-min Rain = 0
KTA1 140037Z 16007KT 27/19 A2991 RMK A01 T02740186  RH  059%=      5-min Rain = 0
KTA1 140038Z 14007KT 27/19 A2991 RMK A01 T02740187  RH  059%=      5-min Rain = 0
KTA1 140039Z 13011KT 28/19 A2991 RMK A01 T02750188  RH  059%=      5-min Rain = 0
KTA1 140040Z 13011KT 28/19 A2992 RMK A01 T02750186  RH  059%=      5-min Rain = 0
KTA1 140041Z 13010KT 28/19 A2992 RMK A01 T02750186  RH  059%=      5-min Rain = 0
KTA1 140042Z 12009KT 28/19 A2992 RMK A01 T02750189  RH  060%=      5-min Rain = 0
KTA1 140043Z 11010KT 27/19 A2992 RMK A01 T02730191  RH  061%=      5-min Rain = 0
KTA1 140044Z 11010KT 27/19 A2992 RMK A01 T02710188  RH  060%=      5-min Rain = 0
KTA1 140045Z 12008KT 27/19 A2992 RMK A01 T02690187  RH  061%=      5-min Rain = 0
KTA1 140046Z 13006KT 27/19 A2992 RMK A01 T02680187  RH  061%=      5-min Rain = 0
KTA1 140047Z 18006KT 27/19 A2993 RMK A01 T02680186  RH  061%=      5-min Rain = 0
KTA1 140048Z 22007KT 27/19 A2993 RMK A01 T02670186  RH  061%=      5-min Rain = 0
KTA1 140049Z 24011KT 27/19 A2994 RMK A01 T02680188  RH  062%=      5-min Rain = 0
KTA1 140050Z 24013KT 27/19 A2995 RMK A01 T02690190  RH  062%=      5-min Rain = 0
KTA1 140051Z 25015KT 27/19 A2995 RMK A01 T02680191  RH  062%=      5-min Rain = 0
KTA1 140052Z 25014KT 27/20 A2995 RMK A01 T02660200  RH  067%=      5-min Rain = 0
KTA1 140053Z 25012KT 26/21 A2995 RMK A01 T02600205  RH  071%=      5-min Rain = 0
KTA1 140054Z 25013KT 26/21 A2995 RMK A01 T02550208  RH  075%=      5-min Rain = 0.02
KTA1 140055Z 24015KT 25/21 A2995 RMK A01 T02500209  RH  078%=      5-min Rain = 0.01
KTA1 140056Z 25015KT 25/21 A2996 RMK A01 T02470210  RH  080%=      5-min Rain = 0
KTA1 140057Z 25016KT 24/21 A2996 RMK A01 T02440211  RH  082%=      5-min Rain = 0.01
KTA1 140058Z 24014KT 24/21 A2996 RMK A01 T02420209  RH  082%=      5-min Rain = 0.01
KTA1 140059Z 23012KT 24/21 A2996 RMK A01 T02420210  RH  082%=      5-min Rain = 0
KTA1 140100Z 22013KT 24/21 A2996 RMK A01 T02400210  RH  084%=      5-min Rain = 0.01
KTA1 140101Z 21011KT 24/21 A2996 RMK A01 T02380211  RH  085%=      5-min Rain = 0
KTA1 140102Z 21013KT 24/21 A2997 RMK A01 T02360210  RH  085%=      5-min Rain = 0.01
KTA1 140103Z 22014KT 23/21 A2997 RMK A01 T02330210  RH  087%=      5-min Rain = 0.04
KTA1 140104Z 22012KT 23/21 A2997 RMK A01 T02310210  RH  088%=      5-min Rain = 0.03
KTA1 140105Z 22009KT 23/21 A2997 RMK A01 T02280211  RH  090%=      5-min Rain = 0.03
KTA1 140106Z 22006KT 23/21 A2997 RMK A01 T02260209  RH  090%=      5-min Rain = 0.03
KTA1 140107Z 22005KT 22/21 A2997 RMK A01 T02240208  RH  091%=      5-min Rain = 0.02
KTA1 140108Z 20004KT 22/21 A2997 RMK A01 T02230208  RH  091%=      5-min Rain = 0.03
KTA1 140109Z 20004KT 22/21 A2996 RMK A01 T02230209  RH  092%=      5-min Rain = 0.01
KTA1 140110Z 20003KT 22/21 A2996 RMK A01 T02220208  RH  092%=      5-min Rain = 0.02
KTA1 140111Z 19003KT 22/21 A2996 RMK A01 T02210208  RH  092%=      5-min Rain = 0.03
KTA1 140112Z 19003KT 22/21 A2996 RMK A01 T02210208  RH  092%=      5-min Rain = 0.03
KTA1 140113Z 19003KT 22/21 A2996 RMK A01 T02210209  RH  093%=      5-min Rain = 0.02
KTA1 140114Z 19004KT 22/21 A2996 RMK A01 T02210210  RH  094%=      5-min Rain = 0.02
KTA1 140115Z 19006KT 22/21 A2995 RMK A01 T02210210  RH  094%=      5-min Rain = 0.01
KTA1 140116Z 19007KT 22/21 A2995 RMK A01 T02200209  RH  093%=      5-min Rain = 0.02
KTA1 140117Z 20007KT 22/21 A2995 RMK A01 T02190207  RH  093%=      5-min Rain = 0.01
KTA1 140118Z 20006KT 22/21 A2994 RMK A01 T02200208  RH  093%=      5-min Rain = 0.01
KTA1 140119Z 19007KT 22/21 A2994 RMK A01 T02200208  RH  093%=      5-min Rain = 0.01
KTA1 140120Z 19009KT 22/21 A2994 RMK A01 T02200208  RH  093%=      5-min Rain = 0.01
KTA1 140121Z 19008KT 22/21 A2994 RMK A01 T02200210  RH  094%=      5-min Rain = 0.01
KTA1 140122Z 19010KT 22/21 A2994 RMK A01 T02200210  RH  094%=      5-min Rain = 0
KTA1 140123Z 19012KT 22/21 A2994 RMK A01 T02200210  RH  094%=      5-min Rain = 0.01
KTA1 140124Z 19012KT 22/21 A2994 RMK A01 T02200210  RH  094%=      5-min Rain = 0
KTA1 140125Z 19012KT 22/21 A2994 RMK A01 T02200209  RH  093%=      5-min Rain = 0.01
KTA1 140126Z 20012KT 22/21 A2994 RMK A01 T02210209  RH  093%=      5-min Rain = 0.01
KTA1 140127Z 20012KT 22/21 A2994 RMK A01 T02220209  RH  092%=      5-min Rain = 0
KTA1 140128Z 20013KT 22/21 A2994 RMK A01 T02220209  RH  092%=      5-min Rain = 0
KTA1 140129Z 20012KT 22/21 A2994 RMK A01 T02230209  RH  092%=      5-min Rain = 0.01
KTA1 140130Z 20012KT 22/21 A2994 RMK A01 T02240210  RH  092%=      5-min Rain = 0
KTA1 140131Z 20012KT 22/21 A2994 RMK A01 T02230210  RH  092%=      5-min Rain = 0
KTA1 140132Z 20014KT 22/21 A2993 RMK A01 T02240210  RH  092%=      5-min Rain = 0
KTA1 140133Z 20014KT 22/21 A2993 RMK A01 T02240209  RH  091%=      5-min Rain = 0
KTA1 140134Z 20014KT 22/21 A2993 RMK A01 T02240209  RH  091%=      5-min Rain = 0
KTA1 140135Z 21014KT 22/21 A2993 RMK A01 T02240210  RH  092%=      5-min Rain = 0.01
KTA1 140136Z 21013KT 23/21 A2993 RMK A01 T02250210  RH  092%=      5-min Rain = 0
KTA1 140137Z 21014KT 23/21 A2993 RMK A01 T02260212  RH  092%=      5-min Rain = 0
KTA1 140138Z 22015KT 23/21 A2993 RMK A01 T02270212  RH  091%=      5-min Rain = 0
KTA1 140139Z 22017KT 23/21 A2992 RMK A01 T02280212  RH  091%=      5-min Rain = 0.01
KTA1 140140Z 22016KT 23/21 A2992 RMK A01 T02290211  RH  090%=      5-min Rain = 0
KTA1 140141Z 22018KT 23/21 A2992 RMK A01 T02290211  RH  090%=      5-min Rain = 0
KTA1 140142Z 22018KT 23/21 A2992 RMK A01 T02290211  RH  090%=      5-min Rain = 0.01
KTA1 140143Z 22018KT 23/21 A2992 RMK A01 T02290210  RH  089%=      5-min Rain = 0
KTA1 140144Z 22016KT 23/21 A2992 RMK A01 T02290210  RH  089%=      5-min Rain = 0
KTA1 140145Z 22019G25KT 23/21 A2992 RMK A01 T02290210  RH  089%=      5-min Rain = 0.01
KTA1 140146Z 21020KT 23/21 A2992 RMK A01 T02310206  RH  086%=      5-min Rain = 0
KTA1 140147Z 22018KT 23/20 A2992 RMK A01 T02330203  RH  084%=      5-min Rain = 0
KTA1 140148Z 22016G21KT 23/20 A2992 RMK A01 T02340203  RH  083%=      5-min Rain = 0
KTA1 140149Z 21018KT 24/21 A2992 RMK A01 T02350205  RH  084%=      5-min Rain = 0
KTA1 140150Z 21020KT 24/21 A2992 RMK A01 T02350205  RH  083%=      5-min Rain = 0
KTA1 140151Z 21021G26KT 24/20 A2992 RMK A01 T02360202  RH  081%=      5-min Rain = 0
KTA1 140152Z 21019KT 24/20 A2992 RMK A01 T02370201  RH  080%=      5-min Rain = 0
KTA1 140153Z 21019KT 24/20 A2992 RMK A01 T02380202  RH  080%=      5-min Rain = 0
KTA1 140154Z 21018KT 24/20 A2992 RMK A01 T02370203  RH  081%=      5-min Rain = 0
KTA1 140155Z 21016KT 24/21 A2992 RMK A01 T02370205  RH  082%=      5-min Rain = 0
KTA1 140156Z 21019KT 24/21 A2992 RMK A01 T02370205  RH  083%=      5-min Rain = 0
KTA1 140157Z 21020G25KT 24/21 A2992 RMK A01 T02370205  RH  082%=      5-min Rain = 0
KTA1 140158Z 21020KT 24/20 A2992 RMK A01 T02370203  RH  081%=      5-min Rain = 0
KTA1 140159Z 21019G24KT 24/20 A2992 RMK A01 T02380201  RH  080%=      5-min Rain = 0
KTA1 140200Z 21021G28KT 24/20 A2991 RMK A01 T02380197  RH  078%=      5-min Rain = 0
KTA1 140201Z 21022G30KT 24/19 A2991 RMK A01 T02390192  RH  075%=      5-min Rain = 0
KTA1 140202Z 21022G29KT 24/19 A2991 RMK A01 T02410192  RH  074%=      5-min Rain = 0
KTA1 140203Z 21021G28KT 24/19 A2991 RMK A01 T02400191  RH  074%=      5-min Rain = 0
KTA1 140204Z 21023KT 24/19 A2991 RMK A01 T02400192  RH  074%=      5-min Rain = 0
KTA1 140205Z 21024KT 24/19 A2991 RMK A01 T02400190  RH  073%=      5-min Rain = 0
KTA1 140206Z 21025G30KT 24/19 A2991 RMK A01 T02400189  RH  073%=      5-min Rain = 0
KTA1 140207Z 21023G31KT 24/19 A2991 RMK A01 T02400190  RH  074%=      5-min Rain = 0
KTA1 140208Z 20023G28KT 24/19 A2991 RMK A01 T02390187  RH  073%=      5-min Rain = 0
KTA1 140209Z 21025G30KT 24/19 A299 RMK A01 T02400186  RH  072%=      5-min Rain = 0.01
KTA1 140210Z 20028KT 24/19 A299 RMK A01 T02400186  RH  072%=      5-min Rain = 0
KTA1 140211Z 20027G32KT 24/18 A299 RMK A01 T02410183  RH  070%=      5-min Rain = 0
KTA1 140212Z 20029G36KT 24/18 A299 RMK A01 T02410182  RH  069%=      5-min Rain = 0
KTA1 140213Z 20030KT 24/18 A299 RMK A01 T02420182  RH  069%=      5-min Rain = 0
KTA1 140214Z 21029G35KT 24/18 A299 RMK A01 T02430181  RH  068%=      5-min Rain = 0
KTA1 140215Z 21028G35KT 24/18 A299 RMK A01 T02420184  RH  070%=      5-min Rain = 0
KTA1 140216Z 20026KT 24/19 A299 RMK A01 T02410186  RH  072%=      5-min Rain = 0
KTA1 140217Z 20028G35KT 24/19 A299 RMK A01 T02380187  RH  073%=      5-min Rain = 0
KTA1 140218Z 21028G33KT 24/19 A299 RMK A01 T02370185  RH  072%=      5-min Rain = 0
KTA1 140219Z 21028KT 24/18 A299 RMK A01 T02370184  RH  072%=      5-min Rain = 0
KTA1 140220Z 21026KT 24/19 A299 RMK A01 T02370189  RH  074%=      5-min Rain = 0
KTA1 140221Z 20025G31KT 24/19 A2989 RMK A01 T02350189  RH  076%=      5-min Rain = 0
KTA1 140222Z 20027KT 23/19 A2989 RMK A01 T02340191  RH  077%=      5-min Rain = 0
KTA1 140223Z 20024KT 23/19 A2989 RMK A01 T02330188  RH  076%=      5-min Rain = 0
KTA1 140224Z 20025G31KT 23/19 A2989 RMK A01 T02330188  RH  076%=      5-min Rain = 0
KTA1 140225Z 20026KT 23/19 A2989 RMK A01 T02340186  RH  074%=      5-min Rain = 0
KTA1 140226Z 19027KT 24/19 A2989 RMK A01 T02350187  RH  074%=      5-min Rain = 0
KTA1 140227Z 20025G30KT 24/19 A2989 RMK A01 T02350187  RH  074%=      5-min Rain = 0
KTA1 140228Z 20024G30KT 24/19 A2989 RMK A01 T02350188  RH  075%=      5-min Rain = 0
KTA1 140229Z 19027KT 24/19 A2989 RMK A01 T02350186  RH  074%=      5-min Rain = 0
KTA1 140230Z 20028KT 24/18 A2989 RMK A01 T02360182  RH  072%=      5-min Rain = 0
KTA1 140231Z 20025KT 24/18 A2989 RMK A01 T02390181  RH  070%=      5-min Rain = 0
KTA1 140232Z 20024G32KT 24/18 A2989 RMK A01 T02410177  RH  068%=      5-min Rain = 0
KTA1 140233Z 20022G27KT 24/18 A2989 RMK A01 T02430180  RH  068%=      5-min Rain = 0
KTA1 140234Z 20025G32KT 24/18 A2989 RMK A01 T02430177  RH  067%=      5-min Rain = 0
KTA1 140235Z 20023KT 24/18 A2989 RMK A01 T02430178  RH  067%=      5-min Rain = 0
KTA1 140236Z 19021KT 24/18 A2989 RMK A01 T02430178  RH  067%=      5-min Rain = 0
KTA1 140237Z 19021KT 24/18 A2989 RMK A01 T02420180  RH  068%=      5-min Rain = 0
KTA1 140238Z 20020G25KT 24/18 A2989 RMK A01 T02410179  RH  068%=      5-min Rain = 0
KTA1 140239Z 20019KT 24/18 A299 RMK A01 T02400179  RH  068%=      5-min Rain = 0
KTA1 140240Z 20020G29KT 24/18 A299 RMK A01 T02400178  RH  068%=      5-min Rain = 0
KTA1 140241Z 20020G26KT 24/18 A299 RMK A01 T02400180  RH  069%=      5-min Rain = 0
KTA1 140242Z 20020KT 24/18 A299 RMK A01 T02390181  RH  070%=      5-min Rain = 0
KTA1 140243Z 20017G22KT 24/18 A299 RMK A01 T02380184  RH  072%=      5-min Rain = 0
KTA1 140244Z 20018G23KT 24/18 A299 RMK A01 T02370184  RH  072%=      5-min Rain = 0
KTA1 140245Z 20014G19KT 24/19 A2991 RMK A01 T02370185  RH  073%=      5-min Rain = 0
KTA1 140246Z 20016G21KT 24/19 A2991 RMK A01 T02370186  RH  073%=      5-min Rain = 0
KTA1 140247Z 20017G23KT 24/19 A2991 RMK A01 T02360185  RH  073%=      5-min Rain = 0
KTA1 140248Z 20016KT 24/18 A2991 RMK A01 T02370184  RH  072%=      5-min Rain = 0
KTA1 140249Z 20017KT 24/18 A2991 RMK A01 T02370183  RH  072%=      5-min Rain = 0
KTA1 140250Z 19015G24KT 24/18 A2991 RMK A01 T02380184  RH  072%=      5-min Rain = 0
KTA1 140251Z 20023G28KT 24/18 A2991 RMK A01 T02380182  RH  071%=      5-min Rain = 0
KTA1 140252Z 20020G27KT 24/18 A2991 RMK A01 T02390180  RH  069%=      5-min Rain = 0
KTA1 140253Z 20020G25KT 24/18 A2991 RMK A01 T02400182  RH  070%=      5-min Rain = 0
KTA1 140254Z 19021KT 24/18 A2991 RMK A01 T02400183  RH  070%=      5-min Rain = 0
KTA1 140255Z 19023KT 24/18 A2991 RMK A01 T02400183  RH  071%=      5-min Rain = 0
KTA1 140256Z 20021G26KT 24/18 A2991 RMK A01 T02390184  RH  071%=      5-min Rain = 0
KTA1 140257Z 20025G30KT 24/18 A2991 RMK A01 T02390184  RH  071%=      5-min Rain = 0
KTA1 140258Z 20023G28KT 24/18 A2991 RMK A01 T02390184  RH  071%=      5-min Rain = 0
KTA1 140259Z 20024G31KT 24/18 A2991 RMK A01 T02390183  RH  071%=      5-min Rain = 0
KTA1 140300Z 20025G32KT 24/18 A2991 RMK A01 T02400183  RH  071%=      5-min Rain = 0
KTA1 140301Z 20023G29KT 24/18 A2991 RMK A01 T02400183  RH  071%=      5-min Rain = 0
KTA1 140302Z 20023KT 24/18 A2991 RMK A01 T02390183  RH  071%=      5-min Rain = 0
KTA1 140303Z 20020G25KT 24/19 A2992 RMK A01 T02390185  RH  072%=      5-min Rain = 0
KTA1 140304Z 20020G27KT 24/19 A2992 RMK A01 T02370186  RH  073%=      5-min Rain = 0
KTA1 140305Z 20018G23KT 24/19 A2992 RMK A01 T02370188  RH  074%=      5-min Rain = 0
KTA1 140306Z 20015KT 24/19 A2992 RMK A01 T02350190  RH  076%=      5-min Rain = 0
KTA1 140307Z 21014G19KT 23/19 A2992 RMK A01 T02340190  RH  077%=      5-min Rain = 0
KTA1 140308Z 21015G20KT 23/19 A2992 RMK A01 T02330191  RH  077%=      5-min Rain = 0
KTA1 140309Z 21018G23KT 23/19 A2992 RMK A01 T02330191  RH  077%=      5-min Rain = 0.01
KTA1 140310Z 21017G23KT 23/19 A2992 RMK A01 T02330190  RH  077%=      5-min Rain = 0
KTA1 140311Z 21020G27KT 23/19 A2992 RMK A01 T02330190  RH  077%=      5-min Rain = 0
KTA1 140312Z 21018KT 23/19 A2992 RMK A01 T02340189  RH  076%=      5-min Rain = 0
KTA1 140313Z 21019G25KT 23/19 A2992 RMK A01 T02340188  RH  075%=      5-min Rain = 0
KTA1 140314Z 21021KT 24/19 A2992 RMK A01 T02350187  RH  074%=      5-min Rain = 0
KTA1 140315Z 21021KT 24/19 A2992 RMK A01 T02350188  RH  075%=      5-min Rain = 0
KTA1 140316Z 20020KT 24/19 A2992 RMK A01 T02360189  RH  075%=      5-min Rain = 0
KTA1 140317Z 21021KT 24/19 A2993 RMK A01 T02360187  RH  074%=      5-min Rain = 0
KTA1 140318Z 21020KT 24/18 A2993 RMK A01 T02370184  RH  072%=      5-min Rain = 0
KTA1 140319Z 21018G24KT 24/18 A2993 RMK A01 T02380184  RH  072%=      5-min Rain = 0
KTA1 140320Z 22019G24KT 24/19 A2993 RMK A01 T02390186  RH  072%=      5-min Rain = 0
KTA1 140321Z 22019G24KT 24/19 A2993 RMK A01 T02380188  RH  073%=      5-min Rain = 0
KTA1 140322Z 22021KT 24/19 A2993 RMK A01 T02380187  RH  073%=      5-min Rain = 0
KTA1 140323Z 21020G25KT 24/19 A2993 RMK A01 T02370189  RH  074%=      5-min Rain = 0
KTA1 140324Z 22021KT 24/19 A2993 RMK A01 T02370190  RH  075%=      5-min Rain = 0
KTA1 140325Z 22020G25KT 24/19 A2993 RMK A01 T02360192  RH  076%=      5-min Rain = 0
KTA1 140326Z 22020G25KT 24/19 A2993 RMK A01 T02350192  RH  077%=      5-min Rain = 0.01
KTA1 140327Z 22021G27KT 24/19 A2993 RMK A01 T02350193  RH  077%=      5-min Rain = 0
KTA1 140328Z 22024KT 23/19 A2993 RMK A01 T02340193  RH  077%=      5-min Rain = 0
KTA1 140329Z 21020KT 24/19 A2994 RMK A01 T02350194  RH  078%=      5-min Rain = 0
KTA1 140330Z 21021G26KT 23/20 A2994 RMK A01 T02340195  RH  079%=      5-min Rain = 0
KTA1 140331Z 21022KT 23/20 A2993 RMK A01 T02340195  RH  079%=      5-min Rain = 0
KTA1 140332Z 21022G28KT 23/19 A2994 RMK A01 T02330193  RH  078%=      5-min Rain = 0
KTA1 140333Z 21022KT 23/20 A2993 RMK A01 T02330195  RH  079%=      5-min Rain = 0
KTA1 140334Z 21021KT 23/20 A2993 RMK A01 T02330196  RH  080%=      5-min Rain = 0
KTA1 140335Z 21022KT 23/20 A2993 RMK A01 T02310196  RH  080%=      5-min Rain = 0
KTA1 140336Z 21023G29KT 23/19 A2993 RMK A01 T02310194  RH  080%=      5-min Rain = 0.01
KTA1 140337Z 21022G29KT 23/20 A2993 RMK A01 T02310195  RH  080%=      5-min Rain = 0
KTA1 140338Z 21022G28KT 23/20 A2993 RMK A01 T02310195  RH  080%=      5-min Rain = 0
KTA1 140339Z 21020G26KT 23/20 A2993 RMK A01 T02310196  RH  081%=      5-min Rain = 0
KTA1 140340Z 21024KT 23/20 A2993 RMK A01 T02310196  RH  081%=      5-min Rain = 0
KTA1 140341Z 21024KT 23/20 A2993 RMK A01 T02310195  RH  080%=      5-min Rain = 0
KTA1 140342Z 21023G29KT 23/20 A2993 RMK A01 T02310195  RH  080%=      5-min Rain = 0
KTA1 140343Z 21024G30KT 23/20 A2993 RMK A01 T02310196  RH  080%=      5-min Rain = 0
KTA1 140344Z 21024G30KT 23/20 A2992 RMK A01 T02310196  RH  081%=      5-min Rain = 0
KTA1 140345Z 21022KT 23/20 A2992 RMK A01 T02310197  RH  081%=      5-min Rain = 0
KTA1 140346Z 21022G31KT 23/20 A2993 RMK A01 T02310198  RH  082%=      5-min Rain = 0
KTA1 140347Z 21021G26KT 23/20 A2992 RMK A01 T02300199  RH  083%=      5-min Rain = 0
KTA1 140348Z 21023KT 23/20 A2992 RMK A01 T02290199  RH  083%=      5-min Rain = 0.01
KTA1 140349Z 21026G31KT 23/20 A2992 RMK A01 T02290199  RH  083%=      5-min Rain = 0
KTA1 140350Z 21026G31KT 23/20 A2992 RMK A01 T02290197  RH  082%=      5-min Rain = 0
KTA1 140351Z 21027KT 23/20 A2992 RMK A01 T02290196  RH  082%=      5-min Rain = 0
KTA1 140352Z 21023G29KT 23/20 A2992 RMK A01 T02300197  RH  082%=      5-min Rain = 0
KTA1 140353Z 22027KT 23/20 A2992 RMK A01 T02300196  RH  081%=      5-min Rain = 0
KTA1 140354Z 21022G27KT 23/20 A2992 RMK A01 T02300195  RH  081%=      5-min Rain = 0
KTA1 140355Z 22024G29KT 23/19 A2992 RMK A01 T02290193  RH  080%=      5-min Rain = 0
KTA1 140356Z 22024KT 23/19 A2992 RMK A01 T02300193  RH  080%=      5-min Rain = 0
KTA1 140357Z 21024G29KT 23/19 A2992 RMK A01 T02290192  RH  079%=      5-min Rain = 0
KTA1 140358Z 22026KT 23/19 A2991 RMK A01 T02290191  RH  079%=      5-min Rain = 0
KTA1 140359Z 22026G31KT 23/19 A2991 RMK A01 T02300190  RH  079%=      5-min Rain = 0
KTA1 140400Z 22024KT 23/19 A2991 RMK A01 T02290191  RH  079%=      5-min Rain = 0
KTA1 140401Z 22026KT 23/19 A2991 RMK A01 T02290189  RH  078%=      5-min Rain = 0
KTA1 140402Z 22024G30KT 23/19 A299 RMK A01 T02280188  RH  078%=      5-min Rain = 0
KTA1 140403Z 22024G29KT 23/19 A299 RMK A01 T02280188  RH  078%=      5-min Rain = 0
KTA1 140404Z 22025G32KT 23/19 A299 RMK A01 T02290187  RH  077%=      5-min Rain = 0
KTA1 140405Z 22025G30KT 23/19 A299 RMK A01 T02290189  RH  078%=      5-min Rain = 0
KTA1 140406Z 22024KT 23/19 A299 RMK A01 T02290190  RH  078%=      5-min Rain = 0
KTA1 140407Z 22025G30KT 23/19 A299 RMK A01 T02280190  RH  079%=      5-min Rain = 0
KTA1 140408Z 22021G27KT 23/19 A299 RMK A01 T02270191  RH  080%=      5-min Rain = 0
KTA1 140409Z 22024KT 23/19 A299 RMK A01 T02260191  RH  081%=      5-min Rain = 0
KTA1 140410Z 22023G28KT 23/19 A299 RMK A01 T02260191  RH  080%=      5-min Rain = 0
KTA1 140411Z 22021G26KT 23/19 A299 RMK A01 T02260192  RH  081%=      5-min Rain = 0
KTA1 140412Z 22023KT 23/19 A299 RMK A01 T02260193  RH  082%=      5-min Rain = 0
KTA1 140413Z 22024G29KT 23/19 A2989 RMK A01 T02260193  RH  082%=      5-min Rain = 0.01
KTA1 140414Z 22022G29KT 23/19 A299 RMK A01 T02260194  RH  082%=      5-min Rain = 0
KTA1 140415Z 22022G28KT 23/20 A299 RMK A01 T02260195  RH  083%=      5-min Rain = 0
KTA1 140416Z 22023G29KT 23/20 A299 RMK A01 T02260196  RH  083%=      5-min Rain = 0
KTA1 140417Z 22023KT 23/20 A299 RMK A01 T02250195  RH  083%=      5-min Rain = 0
KTA1 140418Z 23023G31KT 23/20 A299 RMK A01 T02250196  RH  084%=      5-min Rain = 0
KTA1 140419Z 22022G28KT 22/20 A299 RMK A01 T02240196  RH  085%=      5-min Rain = 0
KTA1 140420Z 23024KT 22/20 A299 RMK A01 T02230196  RH  085%=      5-min Rain = 0
KTA1 140421Z 23022G28KT 22/20 A299 RMK A01 T02220197  RH  085%=      5-min Rain = 0
KTA1 140422Z 23022G27KT 22/20 A299 RMK A01 T02220197  RH  086%=      5-min Rain = 0
KTA1 140423Z 23022G27KT 22/20 A299 RMK A01 T02210198  RH  086%=      5-min Rain = 0
KTA1 140424Z 23020KT 22/20 A299 RMK A01 T02210199  RH  087%=      5-min Rain = 0
KTA1 140425Z 22023KT 22/20 A299 RMK A01 T02200198  RH  087%=      5-min Rain = 0
KTA1 140426Z 22021KT 22/20 A2989 RMK A01 T02220198  RH  086%=      5-min Rain = 0
KTA1 140427Z 22021G27KT 22/20 A299 RMK A01 T02230198  RH  086%=      5-min Rain = 0
KTA1 140428Z 23020KT 22/20 A299 RMK A01 T02230198  RH  086%=      5-min Rain = 0
KTA1 140429Z 23021KT 22/20 A2989 RMK A01 T02230199  RH  086%=      5-min Rain = 0
KTA1 140430Z 23022KT 22/20 A2989 RMK A01 T02240199  RH  086%=      5-min Rain = 0
KTA1 140431Z 23020KT 22/20 A2989 RMK A01 T02240199  RH  086%=      5-min Rain = 0
KTA1 140432Z 23020G25KT 22/20 A2989 RMK A01 T02240200  RH  086%=      5-min Rain = 0
KTA1 140433Z 23021KT 22/20 A2989 RMK A01 T02230199  RH  086%=      5-min Rain = 0
KTA1 140434Z 23021G28KT 22/20 A2989 RMK A01 T02240199  RH  086%=      5-min Rain = 0
KTA1 140435Z 23020KT 22/20 A2989 RMK A01 T02240199  RH  085%=      5-min Rain = 0
KTA1 140436Z 23018G23KT 22/20 A2989 RMK A01 T02240200  RH  086%=      5-min Rain = 0
KTA1 140437Z 23020KT 23/20 A2989 RMK A01 T02250199  RH  086%=      5-min Rain = 0
KTA1 140438Z 23019G25KT 23/20 A2989 RMK A01 T02250199  RH  085%=      5-min Rain = 0
KTA1 140439Z 23018KT 23/20 A2989 RMK A01 T02250199  RH  085%=      5-min Rain = 0
KTA1 140440Z 23019KT 23/20 A2989 RMK A01 T02260199  RH  085%=      5-min Rain = 0
KTA1 140441Z 23018G23KT 23/20 A2989 RMK A01 T02260199  RH  085%=      5-min Rain = 0
KTA1 140442Z 23018G23KT 23/20 A2989 RMK A01 T02270198  RH  084%=      5-min Rain = 0
KTA1 140443Z 23018KT 23/20 A2989 RMK A01 T02280198  RH  083%=      5-min Rain = 0
KTA1 140444Z 23016KT 23/20 A2989 RMK A01 T02290197  RH  082%=      5-min Rain = 0
KTA1 140445Z 23019KT 23/19 A2988 RMK A01 T02290194  RH  080%=      5-min Rain = 0
KTA1 140446Z 23017KT 23/19 A2989 RMK A01 T02310192  RH  079%=      5-min Rain = 0
KTA1 140447Z 23017G22KT 23/19 A2988 RMK A01 T02320192  RH  078%=      5-min Rain = 0
KTA1 140448Z 23018KT 23/19 A2988 RMK A01 T02320193  RH  078%=      5-min Rain = 0
KTA1 140449Z 23020KT 23/19 A2988 RMK A01 T02320194  RH  079%=      5-min Rain = 0
KTA1 140450Z 23019KT 23/20 A2988 RMK A01 T02330196  RH  080%=      5-min Rain = 0
KTA1 140451Z 23020KT 23/20 A2988 RMK A01 T02330197  RH  080%=      5-min Rain = 0
KTA1 140452Z 23018G23KT 23/20 A2988 RMK A01 T02330198  RH  081%=      5-min Rain = 0
KTA1 140453Z 23021G26KT 23/20 A2988 RMK A01 T02330197  RH  080%=      5-min Rain = 0
KTA1 140454Z 23020G25KT 23/20 A2988 RMK A01 T02340197  RH  080%=      5-min Rain = 0
KTA1 140455Z 23020KT 23/20 A2988 RMK A01 T02340198  RH  080%=      5-min Rain = 0
KTA1 140456Z 24017G22KT 23/20 A2988 RMK A01 T02340198  RH  080%=      5-min Rain = 0
KTA1 140457Z 24016KT 23/20 A2988 RMK A01 T02340198  RH  081%=      5-min Rain = 0
KTA1 140458Z 23016G21KT 23/20 A2988 RMK A01 T02330199  RH  081%=      5-min Rain = 0
KTA1 140459Z 24015KT 23/20 A2988 RMK A01 T02320199  RH  082%=      5-min Rain = 0
KTA1 140500Z 23015KT 23/20 A2988 RMK A01 T02310199  RH  082%=      5-min Rain = 0

Page generated in 0.1412 seconds.